Return to Metar
METAR CYNL 232200Z AUTO 25011G17KT 9SM CLR 31/27 A2980 RMK AO1 SLP073
SPECI CYNL 232106Z AUTO 26011G22KT 9SM CLR 30/28 A2981 RMK AO1 WSHFT (21)06 SLP073
METAR CYNL 232100Z AUTO 23009G22KT 9SM FEW100 30/27 A2981 RMK AO1 SLP074
METAR CYNL 232000Z AUTO 24009G16KT 9SM CLR 30/29 A2981 RMK AO1 SLP075
METAR CYNL 231900Z AUTO 22013G19KT 9SM CLR 29/29 A2982 RMK AO1 SLP078
METAR CYNL 231800Z AUTO 22009G19KT 9SM CLR 28/28 A2983 RMK AO1 SLP080
METAR CYNL 231700Z AUTO 24010KT 9SM CLR 28/28 A2984 RMK AO1 SLP084
METAR CYNL 231600Z AUTO 23010G17KT 9SM CLR 26/26 A2985 RMK AO1 SLP089
METAR CYNL 231500Z AUTO 24007KT 9SM CLR 24/ A2985 RMK AO1 SLP093
METAR CYNL 231400Z AUTO 23006KT 9SM CLR 21/ A2986 RMK AO1 SLP098
METAR CYNL 231300Z AUTO 23005KT 9SM CLR 18/ A2987 RMK AO1 SLP102
METAR CYNL 231200Z AUTO 22007KT 9SM CLR 16/ A2987 RMK AO1 SLP102
METAR CYNL 231100Z AUTO 22007KT 9SM CLR 15/ A2987 RMK AO1 SLP105
METAR CYNL 231000Z AUTO 22008KT 9SM CLR 16/ A2987 RMK AO1 SLP104
METAR CYNL 230900Z AUTO 22008G16KT 9SM CLR 18/ A2987 RMK AO1 SLP104
METAR CYNL 230800Z AUTO 22009KT 9SM CLR 18/ A2987 RMK AO1 SLP105
METAR CYNL 230700Z AUTO 21008KT 9SM CLR 18/ A2987 RMK AO1 SLP106
METAR CYNL 230600Z AUTO 20009KT 9SM CLR 18/ A2987 RMK AO1 SLP107
METAR CYNL 230500Z AUTO 18010KT 9SM CLR 18/ A2987 RMK AO1 SLP110
METAR CYNL 230400Z AUTO 17007KT 9SM CLR 18/ A2989 RMK AO1 SLP116
METAR CYNL 230300Z AUTO 17008KT 9SM CLR 19/ A2989 RMK AO1 SLP117
METAR CYNL 230200Z AUTO 17008KT 9SM CLR 20/ A2989 RMK AO1 SLP119
METAR CYNL 230100Z AUTO 17008KT 9SM CLR 22/ A2990 RMK AO1 SLP122
METAR CYNL 230000Z AUTO 17013KT 9SM CLR 22/22 A2992 RMK AO1 SLP130
METAR CYNL 222300Z AUTO 17013KT 9SM CLR 22/22 A2993 RMK AO1 PRESFR SLP137
METAR CYNL 222200Z AUTO 16010G18KT 9SM CLR 20/20 A2995 RMK AO1 SLP148
METAR CYNL 222100Z AUTO 16011G16KT 9SM CLR 19/19 A2997 RMK AO1 PRESFR SLP156
METAR CYNL 222000Z AUTO 14008G17KT 9SM CLR 17/17 A2999 RMK AO1 SLP164
METAR CYNL 221900Z AUTO 16013KT 9SM CLR 15/15 A3001 RMK AO1 SLP170
METAR CYNL 221800Z AUTO 16013G18KT 9SM CLR 14/14 A3002 RMK AO1 WSHFT (17)58 SLP177
SPECI CYNL 221758Z AUTO 16013G18KT 9SM CLR 14/14 A3002 RMK AO1 WSHFT (17)58 SLP175
METAR CYNL 221700Z AUTO 12009KT 9SM CLR 13/13 A3004 RMK AO1 SLP180
METAR CYNL 221600Z AUTO 14008KT 9SM CLR 11/ A3005 RMK AO1 SLP185
METAR CYNL 221500Z AUTO 11010KT 9SM CLR 10/10 A3005 RMK AO1 SLP186
METAR CYNL 221400Z AUTO 14008KT 9SM CLR 07/ A3006 RMK AO1 SLP188
METAR CYNL 221300Z AUTO 12009KT 9SM CLR 05/ A3005 RMK AO1 SLP186
METAR CYNL 221200Z AUTO 10006KT 9SM CLR 03/ A3005 RMK AO1 SLP185
METAR CYNL 221100Z AUTO 09005KT 9SM CLR 01/ A3004 RMK AO1 SLP185
METAR CYNL 221000Z AUTO 06004KT 9SM CLR 01/ A3004 RMK AO1 SLP185
METAR CYNL 220900Z AUTO 07006KT 9SM CLR 02/ A3004 RMK AO1 SLP182
METAR CYNL 220800Z AUTO 08006KT 9SM CLR 02/ A3003 RMK AO1 SLP179
METAR CYNL 220700Z AUTO 08008KT 9SM CLR 03/ A3001 RMK AO1 SLP175
METAR CYNL 220600Z AUTO 07008KT 9SM CLR 05/ A3001 RMK AO1 SLP172
METAR CYNL 220500Z AUTO 07009KT 9SM CLR 06/ A3000 RMK AO1 SLP168
METAR CYNL 220400Z AUTO 07012KT 9SM CLR 08/ A2998 RMK AO1 SLP161
METAR CYNL 220300Z AUTO 07012G17KT 9SM CLR 10/ A2996 RMK AO1 SLP156
METAR CYNL 220200Z AUTO 07012KT 9SM CLR 12/12 A2995 RMK AO1 SLP151
METAR CYNL 220100Z AUTO 06013G18KT 9SM CLR 14/14 A2995 RMK AO1 SLP151
METAR CYNL 220000Z AUTO 07011KT 9SM CLR 14/14 A2995 RMK AO1 SLP151
SPECI CYNL 212329Z AUTO 05013KT 9SM CLR 14/14 A2994 RMK AO1 WSHFT (23)29 SLP149
METAR CYNL 212300Z AUTO 07012G18KT 9SM CLR 14/14 A2994 RMK AO1 SLP149
METAR CYNL 212200Z AUTO 08010G18KT 9SM CLR 14/14 A2993 RMK AO1 SLP146
METAR CYNL 212100Z AUTO 10012KT 9SM CLR 14/14 A2993 RMK AO1 SLP145
METAR CYNL 212000Z AUTO 09012G18KT 9SM CLR 12/12 A2993 RMK AO1 SLP145
METAR CYNL 211900Z AUTO 09012KT 9SM CLR 11/11 A2993 RMK AO1 SLP145
METAR CYNL 211800Z AUTO 08010G17KT 9SM FEW210 09/09 A2992 RMK AO1 SLP142
METAR CYNL 211700Z AUTO 08011G16KT 9SM CLR 09/09 A2991 RMK AO1 SLP141
METAR CYNL 211600Z AUTO 09011KT 9SM CLR 07/07 A2991 RMK AO1 SLP140
METAR CYNL 211500Z AUTO 08011KT 9SM CLR 06/06 A2990 RMK AO1 SLP138
METAR CYNL 211400Z AUTO 08010KT 9SM CLR 05/ A2990 RMK AO1 SLP137
METAR CYNL 211300Z AUTO 08009KT 9SM CLR 04/ A2989 RMK AO1 SLP130
METAR CYNL 211200Z AUTO 07008KT 9SM CLR 03/ A2990 RMK AO1 SLP131
METAR CYNL 211100Z AUTO 07007KT 9SM CLR 02/ A2988 RMK AO1 SLP125
METAR CYNL 211000Z AUTO 07006KT 9SM CLR 03/ A2989 RMK AO1 SLP125
METAR CYNL 210900Z AUTO 09008KT 9SM CLR 03/ A2989 RMK AO1 SLP124
METAR CYNL 210800Z AUTO 07008KT 9SM CLR 04/ A2989 RMK AO1 SLP124
METAR CYNL 210700Z AUTO 07007KT 9SM CLR 05/ A2989 RMK AO1 SLP124
METAR CYNL 210600Z AUTO 07009KT 9SM CLR 06/ A2989 RMK AO1 SLP127
METAR CYNL 210500Z AUTO 07008KT 9SM CLR 08/ A2989 RMK AO1 SLP129
METAR CYNL 210400Z AUTO 07010KT 9SM CLR 09/ A2988 RMK AO1 SLP127
METAR CYNL 210300Z AUTO 07011G18KT 9SM CLR 11/ A2988 RMK AO1 SLP126
METAR CYNL 210200Z AUTO 08009KT 9SM CLR 15/15 A2988 RMK AO1 SLP122
METAR CYNL 210100Z AUTO 08012G17KT 9SM CLR 16/16 A2988 RMK AO1 SLP125
METAR CYNL 210000Z AUTO 09010KT 9SM CLR 18/18 A2988 RMK AO1 SLP124
METAR CYNL 202300Z AUTO 09010KT 9SM CLR 19/19 A2989 RMK AO1 SLP129
METAR CYNL 202200Z AUTO 07010KT 9SM CLR 20/20 A2990 RMK AO1 SLP131
METAR CYNL 202100Z AUTO 11006KT 080V140 9SM CLR 19/ A2992 RMK AO1 SLP137
METAR CYNL 202000Z AUTO 14004KT 9SM CLR 18/ A2993 RMK AO1 PRESFR SLP144
METAR CYNL 201900Z AUTO 15003KT 9SM CLR 15/ A2996 RMK AO1 SLP154
METAR CYNL 201800Z AUTO 15006KT 9SM CLR 13/ A2997 RMK AO1 SLP159
METAR CYNL 201700Z AUTO 14008KT 9SM CLR 10/10 A2999 RMK AO1 PRESFR SLP168
METAR CYNL 201600Z AUTO 12007KT 9SM SCT140 08/ A3001 RMK AO1 SLP176
METAR CYNL 201500Z AUTO 11009KT 9SM SCT140 05/ A3002 RMK AO1 SLP183
METAR CYNL 201400Z AUTO 12009KT 9SM SCT140 04/ A3003 RMK AO1 SLP186
METAR CYNL 201300Z AUTO 11006KT 9SM SCT140 02/ A3004 RMK AO1 SLP186
METAR CYNL 201200Z AUTO 10006KT 9SM FEW110 02/ A3004 RMK AO1 SLP188
METAR CYNL 201100Z AUTO 10005KT 9SM SCT100 01/ A3006 RMK AO1 SLP193
METAR CYNL 201000Z AUTO 09006KT 9SM BKN100 OVC140 01/ A3006 RMK AO1 SLP193
METAR CYNL 200900Z AUTO 09006KT 9SM BKN100 01/ A3007 RMK AO1 SLP195
METAR CYNL 200800Z AUTO 07005KT 9SM FEW130 SCT150 02/ A3007 RMK AO1 SLP191
METAR CYNL 200700Z AUTO 07005KT 9SM BKN090 03/ A3007 RMK AO1 SLP188
METAR CYNL 200600Z AUTO 07006KT 9SM FEW090 03/ A3007 RMK AO1 SLP187
METAR CYNL 200500Z AUTO 08003KT 9SM SCT130 05/ A3007 RMK AO1 SLP189
METAR CYNL 200400Z AUTO 09005KT 9SM FEW130 06/ A3006 RMK AO1 SLP186
METAR CYNL 200300Z AUTO 09006KT 9SM FEW140 08/ A3006 RMK AO1 SLP182
METAR CYNL 200200Z AUTO 10006KT 9SM FEW120 10/ A3005 RMK AO1 SLP179
METAR CYNL 200100Z AUTO 10006KT 9SM BKN092 11/ A3005 RMK AO1 SLP180
METAR CYNL 200000Z AUTO 03009KT 9SM FEW240 12/ A3005 RMK AO1 SLP184
METAR CYNL 192300Z AUTO 04009G15KT 9SM CLR 12/ A3003 RMK AO1 SLP178
METAR CYNL 192200Z AUTO 04011KT 9SM CLR 13/ A3003 RMK AO1 PRESRR SLP178
METAR CYNL 192100Z AUTO 03014KT 9SM FEW210 17/16 A3001 RMK AO1 WSHFT (20)56 SLP168
SPECI CYNL 192056Z AUTO 34013G18KT 310V020 9SM FEW190 18/18 A3001 RMK AO1 WSHFT (20)56 SLP166
SPECI CYNL 192012Z AUTO 34010G20KT 9SM FEW150 18/18 A3001 RMK AO1 WSHFT (20)12 SLP165
METAR CYNL 192000Z AUTO 29011G19KT 9SM FEW150 19/19 A3001 RMK AO1 SLP164
METAR CYNL 191900Z AUTO 27010G19KT 9SM FEW210 17/ A3001 RMK AO1 SLP166
METAR CYNL 191800Z AUTO 29009G18KT 9SM FEW210 16/ A3002 RMK AO1 SLP172
METAR CYNL 191700Z AUTO 26007KT 9SM FEW210 16/16 A3001 RMK AO1 SLP168
METAR CYNL 191600Z AUTO 29006KT 9SM FEW210 15/15 A3003 RMK AO1 PRESFR SLP174
METAR CYNL 191500Z AUTO 26006KT 9SM FEW180 14/14 A3005 RMK AO1 SLP182
METAR CYNL 191400Z AUTO 23007KT 9SM FEW094 11/11 A3006 RMK AO1 PRESFR SLP183
METAR CYNL 191300Z AUTO 22007KT 9SM FEW092 08/08 A3008 RMK AO1 SLP191
METAR CYNL 191200Z AUTO 21008KT 9SM FEW096 07/06 A3010 RMK AO1 PRESFR SLP198
METAR CYNL 191100Z AUTO 21007KT 9SM FEW088 SCT110 05/05 A3013 RMK AO1 PRESFR SLP212
METAR CYNL 191000Z AUTO 22007KT 9SM CLR 04/04 A3015 RMK AO1 PRESFR SLP221
METAR CYNL 190900Z AUTO 21006KT 9SM CLR 06/06 A3018 RMK AO1 SLP228
METAR CYNL 190800Z AUTO 21008KT 9SM CLR 06/06 A3019 RMK AO1 SLP234
METAR CYNL 190700Z AUTO 21007KT 9SM CLR 06/06 A3021 RMK AO1 SLP238
METAR CYNL 190600Z AUTO 21005KT 9SM CLR 06/06 A3022 RMK AO1 SLP244
METAR CYNL 190500Z AUTO 21004KT 9SM CLR 06/06 A3023 RMK AO1 SLP247
METAR CYNL 190400Z AUTO 19004KT 9SM CLR 07/07 A3023 RMK AO1 SLP248
METAR CYNL 190300Z AUTO 19003KT 9SM CLR 11/11 A3024 RMK AO1 SLP246
METAR CYNL 190200Z AUTO 27004KT 9SM CLR 13/10 A3024 RMK AO1 SLP245
METAR CYNL 190100Z AUTO 28005KT 9SM FEW082 14/09 A3024 RMK AO1 SLP247
METAR CYNL 190000Z AUTO 32007KT 290V000 9SM CLR 14/08 A3026 RMK AO1 SLP254
METAR CYNL 182300Z AUTO 33005KT 9SM FEW082 13/09 A3027 RMK AO1 SLP264
METAR CYNL 182200Z AUTO 30008KT 270V340 9SM FEW076 13/07 A3028 RMK AO1 SLP271
METAR CYNL 182100Z AUTO 00006KT 9SM SCT076 11/10 A3029 RMK AO1 SLP275
METAR CYNL 182000Z AUTO 29006G16KT 9SM SCT070 12/06 A3030 RMK AO1 SLP276
METAR CYNL 181900Z AUTO 35007KT 9SM SCT070 10/08 A3029 RMK AO1 WSHFT (18)49 SLP279
SPECI CYNL 181849Z AUTO 00011KT 9SM FEW070 SCT150 12/09 A3029 RMK AO1 WSHFT (18)49 SLP276
SPECI CYNL 181823Z AUTO 32010G15KT 9SM FEW074 SCT240 11/07 A3030 RMK AO1 WSHFT (18)23 SLP278
METAR CYNL 181800Z AUTO 35012KT 9SM SCT076 11/09 A3030 RMK AO1 SLP279
METAR CYNL 181700Z AUTO 32007G15KT 9SM CLR 11/05 A3030 RMK AO1 SLP275
METAR CYNL 181600Z AUTO 30010G17KT 9SM CLR 10/03 A3029 RMK AO1 SLP271
METAR CYNL 181500Z AUTO 33007KT 9SM CLR 10/06 A3030 RMK AO1 SLP272
METAR CYNL 181400Z AUTO 00000KT 9SM CLR 08/08 A3030 RMK AO1 SLP270
METAR CYNL 181300Z AUTO 00000KT 9SM CLR 06/06 A3029 RMK AO1 SLP270
METAR CYNL 181200Z AUTO 00000KT 9SM CLR 02/ A3029 RMK AO1 SLP274
METAR CYNL 181100Z AUTO 02003KT 9SM CLR M00/ A3029 RMK AO1 SLP274
METAR CYNL 181000Z AUTO 02003KT 9SM CLR M00/ A3028 RMK AO1 SLP271
METAR CYNL 180900Z AUTO 34005KT 9SM CLR 00/ A3028 RMK AO1 SLP271
METAR CYNL 180800Z AUTO 30002KT 9SM CLR M02/ A3028 RMK AO1 SLP272
METAR CYNL 180700Z AUTO 00000KT 9SM CLR M01/ A3028 RMK AO1 SLP270
METAR CYNL 180600Z AUTO 00000KT 9SM CLR 03/ A3027 RMK AO1 SLP266
METAR CYNL 180500Z AUTO 00000KT 9SM BKN076 06/ A3027 RMK AO1 SLP261
METAR CYNL 180400Z AUTO 31005KT 9SM SCT080 06/06 A3026 RMK AO1 SLP259
METAR CYNL 180300Z AUTO 14002KT 9SM CLR 08/ A3025 RMK AO1 SLP255
METAR CYNL 180200Z AUTO 00000KT 9SM BKN110 10/10 A3025 RMK AO1 SLP255
METAR CYNL 180100Z AUTO 07003KT 9SM FEW070 10/10 A3025 RMK AO1 SLP256
METAR CYNL 180000Z AUTO 08006KT 9SM FEW070 BKN088 11/11 A3025 RMK AO1 SLP261
METAR CYNL 172300Z AUTO 00000KT 9SM BKN072 11/11 A3026 RMK AO1 SLP264
METAR CYNL 172200Z AUTO 31003KT 270V340 9SM FEW074 SCT210 12/12 A3027 RMK AO1 SLP272
METAR CYNL 172100Z AUTO 21002KT 9SM SCT070 10/10 A3028 RMK AO1 SLP279
METAR CYNL 172000Z AUTO 25009KT 9SM CLR 11/09 A3029 RMK AO1 SLP280
METAR CYNL 171900Z AUTO 16007KT 120V200 9SM CLR 10/09 A3030 RMK AO1 SLP284
METAR CYNL 171800Z AUTO 20007KT 130V260 9SM CLR 10/06 A3031 RMK AO1 SLP288
METAR CYNL 171700Z AUTO 18004KT 140V210 9SM BKN062 09/03 A3032 RMK AO1 SLP290
METAR CYNL 171600Z AUTO 15004KT 9SM BKN062 09/02 A3032 RMK AO1 SLP291
METAR CYNL 171500Z AUTO 00000KT 9SM CLR 07/M00 A3033 RMK AO1 SLP293
METAR CYNL 171400Z AUTO 22003KT 9SM CLR 05/05 A3034 RMK AO1 SLP293
METAR CYNL 171300Z AUTO 24003KT 9SM CLR 02/02 A3034 RMK AO1 SLP295
METAR CYNL 171200Z AUTO 00000KT 9SM CLR M01/ A3032 RMK AO1 SLP292
METAR CYNL 171100Z AUTO 00000KT 9SM CLR M05/ A3032 RMK AO1 SLP293
METAR CYNL 171000Z AUTO 00000KT 9SM CLR M06/ A3032 RMK AO1 SLP296
METAR CYNL 170900Z AUTO 00000KT 9SM CLR M05/ A3032 RMK AO1 SLP295
METAR CYNL 170800Z AUTO 00000KT 9SM CLR M04/ A3032 RMK AO1 SLP296
METAR CYNL 170700Z AUTO 00000KT 9SM CLR M04/ A3031 RMK AO1 SLP293
METAR CYNL 170600Z AUTO 00000KT 9SM CLR M02/ A3030 RMK AO1 SLP289
METAR CYNL 170500Z AUTO 00000KT 9SM CLR M02/ A3029 RMK AO1 SLP286
METAR CYNL 170400Z AUTO VRB03KT 9SM CLR 01/01 A3028 RMK AO1 SLP282
METAR CYNL 170300Z AUTO 09003KT 9SM CLR 03/03 A3027 RMK AO1 SLP277
METAR CYNL 170200Z AUTO 10006KT 9SM CLR 05/05 A3026 RMK AO1 SLP274
METAR CYNL 170100Z AUTO 11008KT 9SM BKN056 06/02 A3025 RMK AO1 SLP270
METAR CYNL 170000Z AUTO 24004KT 160V320 9SM FEW054 07/04 A3025 RMK AO1 SLP271
METAR CYNL 162300Z AUTO 19006KT 150V230 9SM CLR 06/04 A3025 RMK AO1 SLP273
METAR CYNL 162200Z AUTO 14005KT 9SM CLR 05/03 A3025 RMK AO1 SLP273
METAR CYNL 162100Z AUTO 18004KT 9SM FEW044 05/03 A3025 RMK AO1 SLP274
METAR CYNL 162000Z AUTO 13004KT 080V190 9SM FEW042 04/01 A3025 RMK AO1 SLP274
METAR CYNL 161900Z AUTO 10004KT 9SM CLR 03/M01 A3024 RMK AO1 SLP270
METAR CYNL 161800Z AUTO 05005KT 020V090 9SM CLR 02/M03 A3023 RMK AO1 SLP269
METAR CYNL 161700Z AUTO 07006KT 040V110 9SM CLR 01/M04 A3023 RMK AO1 SLP269
METAR CYNL 161600Z AUTO 09002KT 9SM CLR M00/M05 A3023 RMK AO1 SLP269
METAR CYNL 161500Z AUTO 06006KT 9SM SCT088 M03/M06 A3021 RMK AO1 SLP265
METAR CYNL 161400Z AUTO 07006KT 9SM FEW088 M04/M04 A3020 RMK AO1 SLP263
METAR CYNL 161300Z AUTO 08007KT 9SM FEW016 M06/ A3020 RMK AO1 SLP262
SPECI CYNL 161222Z AUTO 09006KT 9SM SCT017 OVC094 M06/ A3019 RMK AO1 PRESRR SLP260
METAR CYNL 161200Z AUTO 07006KT 9SM OVC017 M06/ A3019 RMK AO1 PRESRR SLP260
METAR CYNL 161100Z AUTO 07007KT 9SM OVC017 M06/ A3016 RMK AO1 SLP249
METAR CYNL 161000Z AUTO 08007KT 9SM BKN020 M06/ A3014 RMK AO1 SLP243
METAR CYNL 160900Z AUTO 07009KT 9SM OVC017 M05/ A3013 RMK AO1 PRESRR SLP237
SPECI CYNL 160835Z AUTO 06010KT 9SM OVC015 M05/ A3012 RMK AO1 PRESRR SLP234
METAR CYNL 160800Z AUTO 07009KT 9SM BKN010 BKN013 M04/ A3011 RMK AO1 PRESRR SLP228
SPECI CYNL 160750Z AUTO 06008KT 9SM BKN010 M04/ A3010 RMK AO1 SLP226
SPECI CYNL 160748Z AUTO 06007KT 9SM BKN009 M04/ A3010 RMK AO1 SLP226
SPECI CYNL 160737Z AUTO 03006KT 9SM FEW008 M05/ A3009 RMK AO1 SLP225
METAR CYNL 160700Z AUTO 07004KT 9SM SCT013 M04/ A3007 RMK AO1 SLP216
SPECI CYNL 160658Z AUTO 07004KT 9SM SCT013 BKN017 M04/ A3007 RMK AO1 SLP218
SPECI CYNL 160632Z AUTO 07003KT 9SM BKN013 M04/ A3007 RMK AO1 PRESRR SLP217
SPECI CYNL 160621Z AUTO 07004KT 9SM SCT014 M03/ A3007 RMK AO1 PRESRR SLP217
METAR CYNL 160600Z AUTO 07003KT 9SM OVC013 M03/ A3007 RMK AO1 PRESRR SLP215
SPECI CYNL 160543Z AUTO 09002KT 9SM BKN013 M03/ A3006 RMK AO1 SLP213
METAR CYNL 160500Z AUTO 09004KT 9SM CLR M03/ A3004 RMK AO1 SLP207
SPECI CYNL 160402Z AUTO 08005KT 9SM SCT017 OVC039 M01/ A3004 RMK AO1 SLP205
METAR CYNL 160400Z AUTO 08005KT 9SM BKN017 OVC039 M01/ A3004 RMK AO1 SLP204
METAR CYNL 160300Z AUTO 07007KT 9SM BKN015 OVC039 M01/ A3002 RMK AO1 SLP200
SPECI CYNL 160239Z AUTO 08008KT 9SM BKN015 OVC039 M01/ A3001 RMK AO1 SLP196
SPECI CYNL 160235Z AUTO 08007KT 9SM OVC014 M01/ A3001 RMK AO1 SLP195
SPECI CYNL 160231Z AUTO 08006KT 9SM OVC015 M01/ A3001 RMK AO1 SLP194
METAR CYNL 160200Z AUTO 07009KT 9SM OVC013 M01/ A3001 RMK AO1 SLP194
METAR CYNL 160100Z AUTO 07009KT 9SM BKN013 OVC016 M01/ A3000 RMK AO1 SLP191
METAR CYNL 160000Z AUTO 06009KT 9SM BKN013 OVC018 M00/ A2998 RMK AO1 PRESRR SLP184
METAR CYNL 152300Z AUTO 08011KT 9SM OVC011 M01/ A2996 RMK AO1 SLP176
METAR CYNL 152200Z AUTO 07009KT 9SM BKN011 BKN016 OVC022 00/00 A2994 RMK AO1 PRESRR SLP169
SPECI CYNL 152136Z AUTO 07010KT 9SM BKN011 OVC023 01/01 A2992 RMK AO1 PRESRR SLP162
SPECI CYNL 152135Z AUTO 07008KT 9SM SCT010 BKN016 OVC023 01/01 A2992 RMK AO1 PRESRR SLP162
SPECI CYNL 152106Z AUTO 06008KT 9SM SCT009 BKN011 OVC013 00/00 A2992 RMK AO1 PRESRR SLP162
SPECI CYNL 152105Z AUTO 06008KT 9SM BKN009 OVC013 00/00 A2992 RMK AO1 PRESRR SLP162
SPECI CYNL 152104Z AUTO 06009KT 9SM SCT009 BKN011 OVC014 00/00 A2992 RMK AO1 PRESRR SLP162
METAR CYNL 152100Z AUTO 07010KT 9SM BKN010 OVC013 M00/M00 A2992 RMK AO1 PRESRR SLP162
SPECI CYNL 152055Z AUTO 06010KT 9SM BKN009 OVC014 00/00 A2992 RMK AO1 SLP161
SPECI CYNL 152050Z AUTO 07011KT 7SM SCT009 OVC014 00/00 A2991 RMK AO1 SLP159
SPECI CYNL 152048Z AUTO 06011KT 7SM BKN008 BKN013 OVC016 00/00 A2991 RMK AO1 SLP158
SPECI CYNL 152038Z AUTO 06009KT 4SM FEW008 SCT010 OVC014 M00/M00 A2991 RMK AO1 SLP157
SPECI CYNL 152032Z AUTO 07009KT 3SM BKN009 BKN012 OVC015 M00/M00 A2991 RMK AO1 SLP157
SPECI CYNL 152031Z AUTO 07010KT 3SM SCT009 BKN010 OVC013 M00/M00 A2990 RMK AO1 SLP157
SPECI CYNL 152028Z AUTO 07010KT 5SM BKN009 OVC013 M00/M00 A2990 RMK AO1 SLP157
SPECI CYNL 152026Z AUTO 06009KT 5SM SCT009 OVC012 M00/M00 A2990 RMK AO1 SLP156
SPECI CYNL 152023Z AUTO 06008KT 3SM BKN009 BKN013 OVC140 M00/M00 A2990 RMK AO1 SLP156
SPECI CYNL 152019Z AUTO 06009KT 2 1/2SM BKN009 BKN012 OVC140 M00/M00 A2990 RMK AO1 SLP155
SPECI CYNL 152016Z AUTO 06008KT 3SM BKN009 OVC190 M00/M00 A2990 RMK AO1 SLP155
METAR CYNL 152000Z AUTO 09009KT 9SM BKN010 BKN140 M00/M00 A2989 RMK AO1 SLP153
SPECI CYNL 151958Z AUTO 08009KT 7SM BKN010 BKN030 OVC190 00/00 A2989 RMK AO1 SLP152
SPECI CYNL 151947Z AUTO 08010KT 9SM BKN009 BKN027 OVC150 M00/M00 A2989 RMK AO1 SLP151
SPECI CYNL 151945Z AUTO 08010KT 9SM SCT008 BKN010 BKN026 M00/M00 A2989 RMK AO1 SLP151
SPECI CYNL 151943Z AUTO 08009KT 8SM BKN010 BKN017 OVC033 M01/M01 A2989 RMK AO1 SLP151
SPECI CYNL 151942Z AUTO 07010KT 7SM BKN009 BKN017 OVC033 M01/M01 A2988 RMK AO1 SLP151
SPECI CYNL 151937Z AUTO 08011KT 5SM SCT009 BKN012 BKN016 M01/M01 A2988 RMK AO1 SLP150
SPECI CYNL 151936Z AUTO 08010KT 5SM BKN009 BKN016 OVC026 M01/M01 A2988 RMK AO1 SLP150
SPECI CYNL 151919Z AUTO 09008KT 7SM SCT009 BKN012 OVC016 M01/M01 A2989 RMK AO1 SLP152
SPECI CYNL 151912Z AUTO 08009KT 5SM VV015 M01/M01 A2989 RMK AO1 SLP152
SPECI CYNL 151907Z AUTO 08009KT 6SM VV010 M01/M01 A2989 RMK AO1 SLP152
SPECI CYNL 151903Z AUTO 08009KT 4SM VV009 M01/M01 A2988 RMK AO1 SLP151
METAR CYNL 151900Z AUTO 09009KT 4SM VV011 M02/M02 A2988 RMK AO1 SLP150
SPECI CYNL 151855Z AUTO 08009KT 5SM SCT009 OVC011 M02/M02 A2988 RMK AO1 SLP150
SPECI CYNL 151852Z AUTO 09010KT 3SM BKN009 OVC011 M02/M02 A2988 RMK AO1 SLP149
SPECI CYNL 151851Z AUTO 08009KT 3SM VV010 M02/M02 A2988 RMK AO1 SLP149
SPECI CYNL 151850Z AUTO 08009KT 3SM BKN008 BKN011 OVC019 M02/M02 A2988 RMK AO1 SLP149
SPECI CYNL 151849Z AUTO 08010KT 3SM SCT008 BKN011 OVC019 M02/M02 A2988 RMK AO1 SLP149
SPECI CYNL 151847Z AUTO 08010KT 3SM BKN008 BKN011 OVC019 M02/M02 A2988 RMK AO1 SLP149
SPECI CYNL 151845Z AUTO 08009KT 3SM SCT008 BKN010 BKN012 M02/M02 A2988 RMK AO1 SLP149
SPECI CYNL 151841Z AUTO 08009KT 2 1/2SM BKN008 BKN011 OVC017 M02/M02 A2987 RMK AO1 SLP148
SPECI CYNL 151836Z AUTO 07009KT 7SM SCT008 BKN009 BKN012 M02/M02 A2987 RMK AO1 SLP147
SPECI CYNL 151832Z AUTO 07009KT 5SM SCT008 BKN012 OVC020 M02/M02 A2987 RMK AO1 SLP147
SPECI CYNL 151831Z AUTO 08008KT 4SM BKN008 BKN012 OVC021 M02/M02 A2987 RMK AO1 SLP147
SPECI CYNL 151829Z AUTO 08008KT 4SM SCT007 BKN011 OVC020 M02/M02 A2987 RMK AO1 SLP146
SPECI CYNL 151828Z AUTO 09009KT 4SM SCT007 BKN009 BKN012 M02/M02 A2987 RMK AO1 SLP146
SPECI CYNL 151827Z AUTO 09010KT 4SM SCT008 BKN012 OVC017 M02/M02 A2986 RMK AO1 SLP145
SPECI CYNL 151818Z AUTO 09010KT 3SM SCT007 BKN009 OVC011 M02/M02 A2986 RMK AO1 SLP144
SPECI CYNL 151813Z AUTO 07009KT 2 1/2SM SCT007 BKN009 OVC011 M02/M02 A2986 RMK AO1 SLP143
SPECI CYNL 151809Z AUTO 08011KT 3SM BKN007 OVC012 M02/M02 A2986 RMK AO1 SLP143
SPECI CYNL 151808Z AUTO 08010KT 2 1/2SM BKN007 BKN010 OVC013 M02/M02 A2986 RMK AO1 SLP143
SPECI CYNL 151801Z AUTO 08008KT 2SM SCT007 OVC012 M02/M02 A2986 RMK AO1 SLP142
METAR CYNL 151800Z AUTO 09008KT 3SM SCT007 OVC012 M02/M02 A2986 RMK AO1 SLP143
SPECI CYNL 151758Z AUTO 09007KT 3SM SCT007 OVC012 M02/M02 A2986 RMK AO1 SLP143
SPECI CYNL 151755Z AUTO 10009KT 2SM SCT007 OVC011 M02/M02 A2986 RMK AO1 SLP144
SPECI CYNL 151751Z AUTO 09010KT 2SM SCT007 BKN009 OVC012 M02/M02 A2986 RMK AO1 SLP143
SPECI CYNL 151749Z AUTO 08008KT 1 1/2SM SCT007 BKN009 BKN012 M02/M02 A2986 RMK AO1 SLP143
SPECI CYNL 151738Z AUTO 09009G15KT 1 1/2SM SCT007 OVC012 M02/M02 A2985 RMK AO1 SLP139
SPECI CYNL 151737Z AUTO 10009G15KT 1 1/2SM BKN008 OVC012 M02/M02 A2985 RMK AO1 SLP139
SPECI CYNL 151729Z AUTO 10011KT 1 1/4SM BKN009 OVC015 M02/ A2984 RMK AO1 SLP138
SPECI CYNL 151726Z AUTO 10008KT 1 1/2SM BKN009 BKN015 OVC130 M02/ A2984 RMK AO1 SLP138
SPECI CYNL 151714Z AUTO 09009KT 1 1/2SM VV014 M02/ A2985 RMK AO1 SLP140
SPECI CYNL 151712Z AUTO 10010KT 1 1/4SM VV014 M02/ A2985 RMK AO1 SLP141
SPECI CYNL 151708Z AUTO 09010KT 1 1/2SM VV014 M02/ A2985 RMK AO1 SLP140
SPECI CYNL 151707Z AUTO 09010KT 1 1/4SM VV014 M02/ A2984 RMK AO1 SLP139
METAR CYNL 151700Z AUTO 10009G15KT 1 1/2SM BKN010 OVC014 M02/ A2984 RMK AO1 SLP138
SPECI CYNL 151653Z AUTO 10010G15KT 1 1/2SM VV011 M03/ A2984 RMK AO1 SLP137
SPECI CYNL 151647Z AUTO 09012KT 1 1/4SM VV011 M03/ A2984 RMK AO1 SLP136
SPECI CYNL 151643Z AUTO 09013KT 1 1/2SM VV010 M03/ A2984 RMK AO1 SLP137
SPECI CYNL 151624Z AUTO 08013KT 1SM VV010 M03/ A2984 RMK AO1 SLP137
SPECI CYNL 151622Z AUTO 08012KT 3/4SM VV010 M03/ A2984 RMK AO1 SLP137
SPECI CYNL 151616Z AUTO 09011KT 3/4SM VV008 M02/ A2984 RMK AO1 SLP136
SPECI CYNL 151606Z AUTO 10009KT 5/8SM VV008 M03/ A2984 RMK AO1 SLP136
SPECI CYNL 151601Z AUTO 09010G15KT 3/4SM VV008 M03/ A2984 RMK AO1 SLP137
METAR CYNL 151600Z AUTO 08011KT 1SM VV008 M03/ A2984 RMK AO1 SLP138
SPECI CYNL 151557Z AUTO 08011KT 1SM VV008 M03/ A2984 RMK AO1 SLP139
SPECI CYNL 151553Z AUTO 08011KT 3/4SM VV008 M03/ A2984 RMK AO1 SLP137
SPECI CYNL 151543Z AUTO 09010KT 5/8SM VV009 M03/ A2984 RMK AO1 SLP138
SPECI CYNL 151539Z AUTO 09008KT 3/4SM VV009 M03/ A2984 RMK AO1 SLP140
SPECI CYNL 151535Z AUTO 08009KT 3/4SM VV010 M03/ A2985 RMK AO1 SLP141
SPECI CYNL 151523Z AUTO 07011G17KT 1SM VV010 M03/ A2984 RMK AO1 SLP139
SPECI CYNL 151516Z AUTO 07012KT 1SM VV008 M03/ A2984 RMK AO1 SLP137
SPECI CYNL 151504Z AUTO 08009KT 3/4SM VV008 M03/ A2983 RMK AO1 SLP135
METAR CYNL 151500Z AUTO 09010KT 5/8SM VV008 M04/ A2983 RMK AO1 SLP135
SPECI CYNL 151454Z AUTO 09011KT 5/8SM VV008 M03/ A2983 RMK AO1 SLP133
SPECI CYNL 151451Z AUTO 09010KT 3/4SM VV008 M03/ A2983 RMK AO1 SLP133
SPECI CYNL 151440Z AUTO 09011KT 5/8SM VV009 M04/ A2982 RMK AO1 SLP131
SPECI CYNL 151437Z AUTO 09011KT 3/4SM VV009 M04/ A2982 RMK AO1 SLP132
SPECI CYNL 151426Z AUTO 08012KT 1/4SM VV005 M04/ A2982 RMK AO1 SLP132
SPECI CYNL 151423Z AUTO 09009KT 1/4SM VV004 M04/ A2983 RMK AO1 SLP133
SPECI CYNL 151421Z AUTO 09010KT 1/8SM VV005 M04/ A2983 RMK AO1 SLP134
SPECI CYNL 151409Z AUTO 09009KT 5/8SM VV009 M04/ A2983 RMK AO1 SLP136
SPECI CYNL 151407Z AUTO 09007KT 5/8SM VV010 M04/ A2983 RMK AO1 SLP136
METAR CYNL 151400Z AUTO 09007KT 3/8SM VV006 M04/ A2984 RMK AO1 SLP137
SPECI CYNL 151343Z AUTO 09007KT 1/2SM VV009 M03/ A2984 RMK AO1 SLP136
SPECI CYNL 151342Z AUTO 09007KT 5/8SM VV010 M04/ A2984 RMK AO1 SLP137
SPECI CYNL 151337Z AUTO 09009KT 3/4SM VV013 M04/ A2984 RMK AO1 SLP136
SPECI CYNL 151330Z AUTO 09010KT 1SM VV010 M04/ A2984 RMK AO1 SLP137
SPECI CYNL 151326Z AUTO 08009KT 1SM VV008 M04/ A2984 RMK AO1 SLP137
SPECI CYNL 151323Z AUTO 09008KT 3/4SM VV007 M04/ A2984 RMK AO1 SLP138
METAR CYNL 151300Z AUTO 08008KT 1/2SM VV007 M03/ A2984 RMK AO1 SLP137
SPECI CYNL 151253Z AUTO 10008KT 5/8SM VV009 M03/ A2985 RMK AO1 SLP137
SPECI CYNL 151250Z AUTO 09009KT 3/4SM VV009 M03/ A2985 RMK AO1 SLP137
SPECI CYNL 151248Z AUTO 10008KT 3/4SM VV010 M03/ A2985 RMK AO1 SLP138
SPECI CYNL 151242Z AUTO 10008KT 1 1/4SM VV014 M03/ A2985 RMK AO1 SLP139
SPECI CYNL 151240Z AUTO 10008KT 1 3/4SM VV015 M03/ A2985 RMK AO1 SLP139
SPECI CYNL 151233Z AUTO 09009KT 2SM VV015 M03/ A2985 RMK AO1 SLP139
SPECI CYNL 151231Z AUTO 09009KT 1 3/4SM VV016 M03/ A2985 RMK AO1 SLP138
SPECI CYNL 151227Z AUTO 09010KT 2 1/2SM VV016 M03/ A2985 RMK AO1 SLP139
SPECI CYNL 151226Z AUTO 08008KT 3SM VV017 M03/ A2985 RMK AO1 SLP139
SPECI CYNL 151223Z AUTO 08006KT 2SM VV017 M03/ A2985 RMK AO1 SLP139
SPECI CYNL 151220Z AUTO 09008KT 1 3/4SM VV018 M03/ A2985 RMK AO1 SLP139
SPECI CYNL 151214Z AUTO 10008KT 2 1/2SM VV021 M03/ A2985 RMK AO1 SLP139
SPECI CYNL 151211Z AUTO 09007KT 3SM VV020 M03/ A2985 RMK AO1 SLP139
SPECI CYNL 151206Z AUTO 10009KT 2SM VV016 M03/ A2985 RMK AO1 SLP139
SPECI CYNL 151202Z AUTO 10007KT 1 3/4SM VV015 M03/ A2985 RMK AO1 SLP139
METAR CYNL 151200Z AUTO 11008KT 2SM VV015 M03/ A2985 RMK AO1 SLP139
SPECI CYNL 151159Z AUTO 11009KT 2SM VV015 M03/ A2985 RMK AO1 SLP138
SPECI CYNL 151158Z AUTO 10008KT 3SM VV015 M03/M03 A2985 RMK AO1 SLP138
SPECI CYNL 151151Z AUTO 10007KT 3SM VV014 M03/ A2985 RMK AO1 SLP138
SPECI CYNL 151121Z AUTO 12008KT 6SM VV016 M02/M02 A2986 RMK AO1 SLP141
METAR CYNL 151100Z AUTO 12006KT 9SM CLR M02/M02 A2986 RMK AO1 SLP140
METAR CYNL 151000Z AUTO 12008KT 9SM OVC050 M02/M02 A2987 RMK AO1 PRESFR SLP142
METAR CYNL 150900Z AUTO 12008KT 9SM BKN060 BKN074 M02/M02 A2989 RMK AO1 PRESFR SLP151
METAR CYNL 150800Z AUTO 13008KT 9SM BKN080 M02/M02 A2992 RMK AO1 SLP162
METAR CYNL 150700Z AUTO 13008KT 9SM FEW068 M02/M02 A2994 RMK AO1 SLP168
METAR CYNL 150600Z AUTO 12010KT 9SM CLR M02/M02 A2995 RMK AO1 SLP173
METAR CYNL 150500Z AUTO 12009KT 9SM CLR M02/M02 A2996 RMK AO1 SLP179
METAR CYNL 150400Z AUTO 10006KT 9SM CLR M02/M02 A2998 RMK AO1 SLP187
METAR CYNL 150300Z AUTO 10005KT 9SM CLR M01/M01 A3000 RMK AO1 SLP193
METAR CYNL 150200Z AUTO 08009KT 9SM CLR M00/M01 A3001 RMK AO1 SLP196
METAR CYNL 150100Z AUTO 09010KT 9SM CLR 01/00 A3003 RMK AO1 SLP201
METAR CYNL 150000Z AUTO 13006KT 9SM CLR 02/00 A3004 RMK AO1 SLP205
METAR CYNL 142300Z AUTO 09006KT 040V140 9SM CLR 03/M03 A3005 RMK AO1 SLP207
METAR CYNL 142200Z AUTO VRB05KT 9SM CLR 03/M03 A3006 RMK AO1 SLP214
METAR CYNL 142100Z AUTO 29008KT 250V330 9SM CLR 02/M06 A3008 RMK AO1 SLP219
METAR CYNL 142000Z AUTO VRB04KT 9SM CLR 01/M06 A3009 RMK AO1 SLP224
METAR CYNL 141900Z AUTO 01007KT 330V040 9SM CLR 00/M04 A3011 RMK AO1 SLP231
METAR CYNL 141800Z AUTO 30006KT 260V340 9SM CLR M02/M06 A3012 RMK AO1 SLP236
METAR CYNL 141700Z AUTO 29004KT 9SM CLR M03/M08 A3013 RMK AO1 SLP238
METAR CYNL 141600Z AUTO 35008KT 9SM CLR M04/M09 A3012 RMK AO1 SLP237
METAR CYNL 141500Z AUTO 01006G15KT 9SM CLR M05/M08 A3012 RMK AO1 SLP236
SPECI CYNL 141402Z AUTO 34007KT 9SM SCT029 M05/M05 A3011 RMK AO1 SLP228
METAR CYNL 141400Z AUTO 35008KT 9SM BKN029 M05/M05 A3011 RMK AO1 SLP228
SPECI CYNL 141350Z AUTO 00008KT 9SM BKN029 M05/M05 A3011 RMK AO1 SLP225
METAR CYNL 141300Z AUTO 33006KT 9SM BKN035 M06/M06 A3010 RMK AO1 SLP222
METAR CYNL 141200Z AUTO 01008KT 9SM OVC034 M07/M07 A3008 RMK AO1 SLP214
METAR CYNL 141100Z AUTO 35007KT 9SM OVC034 M07/M07 A3006 RMK AO1 PRESRR SLP209
METAR CYNL 141000Z AUTO 01005KT 9SM BKN042 M06/M06 A3004 RMK AO1 SLP198
METAR CYNL 140900Z AUTO 02003KT 9SM BKN050 M05/ A3002 RMK AO1 SLP192
METAR CYNL 140800Z AUTO 01004KT 9SM CLR M06/ A3001 RMK AO1 SLP190
METAR CYNL 140700Z AUTO 02002KT 9SM CLR M05/ A3000 RMK AO1 SLP185
METAR CYNL 140600Z AUTO 02006KT 9SM CLR M04/ A2999 RMK AO1 SLP182
METAR CYNL 140500Z AUTO 03004KT 9SM CLR M03/ A2999 RMK AO1 SLP181
METAR CYNL 140400Z AUTO 03009KT 9SM CLR M01/M01 A2998 RMK AO1 PRESRR SLP175
METAR CYNL 140300Z AUTO 00004KT 9SM CLR 03/03 A2995 RMK AO1 SLP161
METAR CYNL 140200Z AUTO 33009KT 9SM CLR 05/03 A2994 RMK AO1 SLP154
METAR CYNL 140100Z AUTO 33010G17KT 9SM CLR 06/03 A2993 RMK AO1 PRESRR SLP150
METAR CYNL 140000Z AUTO 34008G18KT 9SM CLR 07/05 A2991 RMK AO1 SLP141
METAR CYNL 132300Z AUTO 35011G19KT 9SM CLR 07/07 A2989 RMK AO1 PRESRR SLP134
METAR CYNL 132200Z AUTO 32010G20KT 9SM FEW052 08/08 A2987 RMK AO1 SLP127
METAR CYNL 132100Z AUTO 33016G22KT 9SM FEW050 07/07 A2985 RMK AO1 SLP121
METAR CYNL 132000Z AUTO 31012G20KT 9SM BKN039 06/06 A2984 RMK AO1 PRESRR SLP118
METAR CYNL 131900Z AUTO 34012G19KT 9SM SCT029 BKN037 06/ A2981 RMK AO1 PRESRR SLP108
SPECI CYNL 131848Z AUTO 32012G20KT 9SM FEW021 BKN030 06/ A2980 RMK AO1 SLP104
SPECI CYNL 131838Z AUTO 32012G20KT 9SM BKN025 06/ A2980 RMK AO1 SLP104
SPECI CYNL 131836Z AUTO 33010G18KT 9SM BKN023 06/ A2980 RMK AO1 SLP104
SPECI CYNL 131834Z AUTO 33009G18KT 9SM SCT022 BKN072 06/ A2980 RMK AO1 SLP104
SPECI CYNL 131825Z AUTO 33010G19KT 9SM BKN021 06/ A2980 RMK AO1 SLP104
SPECI CYNL 131810Z AUTO 32009G23KT 9SM SCT017 BKN130 05/ A2980 RMK AO1 SLP104
SPECI CYNL 131802Z AUTO 32010G20KT 7SM FEW014 SCT018 BKN023 05/ A2979 RMK AO1 SLP102
METAR CYNL 131800Z AUTO 30013G20KT 7SM FEW014 SCT018 BKN150 05/ A2979 RMK AO1 SLP101
SPECI CYNL 131758Z AUTO 30010G20KT 9SM FEW013 SCT017 BKN110 05/ A2979 RMK AO1 SLP099
SPECI CYNL 131742Z AUTO 32009G16KT 9SM SCT013 BKN016 BKN020 05/ A2978 RMK AO1 PRESRR SLP096
SPECI CYNL 131735Z AUTO 32010G15KT 9SM SCT012 BKN014 OVC022 05/ A2978 RMK AO1 PRESRR SLP096
SPECI CYNL 131734Z AUTO 33010KT 9SM SCT012 BKN015 OVC023 05/ A2978 RMK AO1 PRESRR SLP096
SPECI CYNL 131723Z AUTO 33009KT 9SM SCT011 BKN014 BKN049 04/ A2978 RMK AO1 PRESRR SLP096
METAR CYNL 131700Z AUTO 35013G18KT 9SM SCT012 BKN021 05/ A2977 RMK AO1 PRESRR SLP093
SPECI CYNL 131639Z AUTO 31009G19KT 9SM BKN020 BKN050 06/ A2975 RMK AO1 PRESRR SLP085
SPECI CYNL 131636Z AUTO 31011G19KT 9SM SCT020 BKN028 BKN050 06/ A2975 RMK AO1 PRESRR SLP085
SPECI CYNL 131623Z AUTO 30009G16KT 9SM BKN017 BKN088 06/ A2975 RMK AO1 PRESRR SLP082
SPECI CYNL 131621Z AUTO 31007G16KT 9SM SCT017 BKN025 06/ A2975 RMK AO1 PRESRR SLP082
SPECI CYNL 131618Z AUTO 30011G16KT 9SM SCT017 BKN024 06/ A2974 RMK AO1 PRESRR SLP082
SPECI CYNL 131614Z AUTO 30009G16KT 9SM SCT017 BKN054 06/ A2974 RMK AO1 PRESRR SLP081
SPECI CYNL 131601Z AUTO 33009KT 9SM FEW014 BKN018 05/ A2974 RMK AO1 PRESRR SLP080
METAR CYNL 131600Z AUTO 33009KT 9SM SCT014 BKN025 05/ A2974 RMK AO1 PRESRR SLP080
SPECI CYNL 131552Z AUTO 31010G16KT 9SM SCT014 BKN025 06/ A2973 RMK AO1 PRESRR SLP077
SPECI CYNL 131546Z AUTO 32009G15KT 9SM SCT014 BKN019 OVC025 05/ A2973 RMK AO1 PRESRR SLP076
SPECI CYNL 131545Z AUTO 32008G15KT 9SM BKN014 OVC025 05/ A2973 RMK AO1 PRESRR SLP076
SPECI CYNL 131542Z AUTO 31012KT 9SM BKN015 BKN025 05/ A2973 RMK AO1 PRESRR SLP076
SPECI CYNL 131541Z AUTO 31009KT 9SM BKN014 BKN025 05/ A2973 RMK AO1 PRESRR SLP076
SPECI CYNL 131540Z AUTO 31006KT 9SM BKN015 BKN025 05/ A2973 RMK AO1 PRESRR SLP076
SPECI CYNL 131539Z AUTO 32006KT 9SM BKN014 BKN024 05/ A2973 RMK AO1 PRESRR SLP076
SPECI CYNL 131525Z AUTO 33009G16KT 9SM FEW011 BKN015 05/ A2972 RMK AO1 PRESRR SLP073
SPECI CYNL 131524Z AUTO 32008G18KT 9SM BKN014 OVC034 05/ A2972 RMK AO1 PRESRR SLP073
SPECI CYNL 131521Z AUTO 32009G18KT 9SM FEW011 BKN015 OVC034 05/ A2972 RMK AO1 PRESRR SLP072
SPECI CYNL 131519Z AUTO 32010G18KT 9SM BKN013 BKN018 OVC034 05/ A2972 RMK AO1 PRESRR SLP072
SPECI CYNL 131515Z AUTO 31012G18KT 9SM SCT013 BKN017 05/ A2972 RMK AO1 PRESRR SLP071
SPECI CYNL 131511Z AUTO 31009G18KT 9SM BKN013 BKN054 05/ A2971 RMK AO1 PRESRR SLP071
SPECI CYNL 131508Z AUTO 31010G18KT 9SM SCT012 BKN016 BKN034 05/ A2971 RMK AO1 PRESRR SLP070
METAR CYNL 131500Z AUTO 32007G16KT 9SM BKN012 BKN054 05/ A2971 RMK AO1 PRESRR SLP069
SPECI CYNL 131456Z AUTO 32007G16KT 9SM BKN013 BKN054 05/ A2971 RMK AO1 PRESRR SLP066
SPECI CYNL 131451Z AUTO 31008G16KT 9SM SCT010 BKN015 05/ A2971 RMK AO1 PRESRR SLP066
SPECI CYNL 131450Z AUTO 31006G16KT 9SM FEW010 BKN014 05/ A2971 RMK AO1 PRESRR SLP066
SPECI CYNL 131446Z AUTO 31007G16KT 9SM SCT010 BKN015 05/ A2970 RMK AO1 PRESRR SLP065
SPECI CYNL 131416Z AUTO 31013G20KT 7SM BKN010 OVC021 04/ A2969 RMK AO1 PRESRR SLP062
SPECI CYNL 131414Z AUTO 32009G19KT 3SM BKN009 OVC021 05/ A2969 RMK AO1 PRESRR SLP062
SPECI CYNL 131413Z AUTO 31010G19KT 2 1/2SM SCT010 BKN012 OVC021 05/ A2969 RMK AO1 PRESRR SLP062
METAR CYNL 131400Z AUTO 33008G18KT 9SM OVC022 05/ A2968 RMK AO1 WSHFT (13)52 PRESRR SLP058
SPECI CYNL 131356Z AUTO 33012G18KT 9SM OVC022 06/ A2968 RMK AO1 WSHFT (13)52 SLP055
SPECI CYNL 131355Z AUTO 33011G18KT 9SM SCT020 OVC026 06/ A2968 RMK AO1 WSHFT (13)52 SLP055
SPECI CYNL 131354Z AUTO 33011G18KT 9SM BKN020 OVC026 06/ A2968 RMK AO1 WSHFT (13)52 SLP054
SPECI CYNL 131352Z AUTO 34013G19KT 9SM SCT019 OVC026 06/ A2968 RMK AO1 WSHFT (13)52 SLP054
SPECI CYNL 131326Z AUTO 29012G21KT 9SM BKN025 BKN035 07/ A2966 RMK AO1 SLP047
METAR CYNL 131300Z AUTO 29013G23KT 7SM BKN023 BKN060 07/ A2965 RMK AO1 SLP045
SPECI CYNL 131257Z AUTO 29012G23KT 9SM BKN023 BKN060 07/ A2965 RMK AO1 SLP043
SPECI CYNL 131255Z AUTO 29013G23KT 9SM SCT022 BKN029 BKN060 07/ A2965 RMK AO1 SLP043
SPECI CYNL 131254Z AUTO 29015G23KT 9SM BKN023 BKN060 07/ A2965 RMK AO1 SLP043
SPECI CYNL 131253Z AUTO 29013G23KT 9SM SCT023 BKN029 BKN060 07/ A2965 RMK AO1 SLP043
SPECI CYNL 131249Z AUTO 28013G25KT 9SM BKN024 07/ A2965 RMK AO1 SLP043
SPECI CYNL 131248Z AUTO 28013G25KT 9SM BKN025 07/ A2965 RMK AO1 SLP043
SPECI CYNL 131247Z AUTO 28015G25KT 9SM SCT025 BKN033 07/ A2965 RMK AO1 SLP043
SPECI CYNL 131246Z AUTO 29016G25KT 9SM BKN026 BKN060 07/ A2965 RMK AO1 SLP043
SPECI CYNL 131244Z AUTO 29016G25KT 9SM SCT025 BKN032 07/ A2965 RMK AO1 SLP042
SPECI CYNL 131242Z AUTO 28016G25KT 9SM BKN028 07/ A2965 RMK AO1 SLP042
METAR CYNL 131200Z AUTO 27013G18KT 9SM FEW047 OVC066 07/ A2965 RMK AO1 SLP040
METAR CYNL 131100Z AUTO 28012G18KT 9SM BKN034 BKN048 08/ A2965 RMK AO1 SLP038
METAR CYNL 131000Z AUTO 29009G17KT 9SM FEW054 SCT094 08/ A2964 RMK AO1 SLP035
METAR CYNL 130900Z AUTO 28006KT 9SM SCT054 06/ A2965 RMK AO1 SLP038
METAR CYNL 130800Z AUTO 31002KT 9SM CLR 06/ A2964 RMK AO1 SLP036
METAR CYNL 130700Z AUTO 03004KT 9SM BKN084 08/ A2964 RMK AO1 SLP032
METAR CYNL 130600Z AUTO 27007KT 9SM CLR 10/ A2962 RMK AO1 SLP026
METAR CYNL 130500Z AUTO 27010G16KT 9SM FEW094 11/ A2962 RMK AO1 SLP024
METAR CYNL 130400Z AUTO 28010G20KT 9SM SCT076 12/ A2962 RMK AO1 SLP027
METAR CYNL 130300Z AUTO 30015G20KT 9SM CLR 15/15 A2961 RMK AO1 SLP022
METAR CYNL 130200Z AUTO 30009G18KT 9SM CLR 16/16 A2959 RMK AO1 SLP015
METAR CYNL 130100Z AUTO 30010G20KT 9SM CLR 18/17 A2958 RMK AO1 SLP013
METAR CYNL 130000Z AUTO 30015G32KT 9SM CLR 19/17 A2956 RMK AO1 PRESRR SLP011
METAR CYNL 122300Z AUTO 29019G35KT 9SM CLR 20/18 A2954 RMK AO1 SLP004
METAR CYNL 122200Z AUTO 29014G29KT 9SM FEW086 21/20 A2952 RMK AO1 SLP999
METAR CYNL 122100Z AUTO 28014G24KT 9SM FEW078 21/21 A2951 RMK AO1 SLP995
METAR CYNL 122000Z AUTO 27017G29KT 9SM CLR 21/21 A2950 RMK AO1 SLP994
METAR CYNL 121900Z AUTO 26014G30KT 9SM CLR 20/20 A2952 RMK AO1 SLP000
METAR CYNL 121800Z AUTO 26013G24KT 9SM CLR 19/19 A2954 RMK AO1 SLP007
METAR CYNL 121700Z AUTO 24010G18KT 9SM FEW220 17/17 A2955 RMK AO1 SLP015
METAR CYNL 121600Z AUTO 22010G16KT 9SM FEW200 14/14 A2957 RMK AO1 PRESFR SLP022
METAR CYNL 121500Z AUTO 21010G15KT 9SM FEW180 14/14 A2960 RMK AO1 PRESFR SLP031
METAR CYNL 121400Z AUTO 19006KT 9SM CLR 11/11 A2965 RMK AO1 PRESFR SLP050
METAR CYNL 121300Z AUTO 21003KT 9SM SCT120 06/ A2971 RMK AO1 PRESFR SLP076
METAR CYNL 121200Z AUTO 23006KT 9SM CLR 04/ A2976 RMK AO1 SLP091
METAR CYNL 121100Z AUTO 20005KT 9SM BKN090 OVC110 03/ A2977 RMK AO1 PRESFR SLP095
METAR CYNL 121000Z AUTO 20003KT 9SM FEW120 02/ A2980 RMK AO1 PRESFR SLP108
METAR CYNL 120900Z AUTO 20003KT 9SM FEW150 01/ A2983 RMK AO1 PRESFR SLP116
METAR CYNL 120800Z AUTO 16003KT 9SM FEW082 02/ A2985 RMK AO1 PRESFR SLP121
METAR CYNL 120700Z AUTO 16003KT 9SM CLR 01/ A2989 RMK AO1 PRESFR SLP137
METAR CYNL 120600Z AUTO 14002KT 9SM CLR 01/ A2992 RMK AO1 SLP146
METAR CYNL 120500Z AUTO 10004KT 9SM CLR 02/ A2993 RMK AO1 SLP150
METAR CYNL 120400Z AUTO 09006KT 9SM CLR 03/ A2995 RMK AO1 SLP156
METAR CYNL 120300Z AUTO 09008KT 9SM CLR 05/05 A2996 RMK AO1 SLP159
METAR CYNL 120200Z AUTO 09010KT 9SM CLR 06/06 A2995 RMK AO1 SLP157
METAR CYNL 120100Z AUTO 07012G19KT 9SM CLR 08/07 A2996 RMK AO1 SLP159
METAR CYNL 120000Z AUTO 06015G20KT 9SM CLR 08/07 A2995 RMK AO1 SLP157
METAR CYNL 112300Z AUTO 07013G18KT 9SM CLR 10/08 A2995 RMK AO1 SLP157
METAR CYNL 112200Z AUTO 08012G17KT 9SM CLR 10/10 A2994 RMK AO1 SLP156
METAR CYNL 112100Z AUTO 07012G18KT 9SM CLR 11/10 A2994 RMK AO1 SLP156
METAR CYNL 112000Z AUTO 07010G16KT 9SM FEW130 09/09 A2994 RMK AO1 SLP156
METAR CYNL 111900Z AUTO 07011G17KT 9SM FEW098 10/10 A2994 RMK AO1 SLP154
METAR CYNL 111800Z AUTO 06008KT 9SM FEW098 SCT160 11/10 A2994 RMK AO1 SLP151
METAR CYNL 111700Z AUTO 14005KT 9SM FEW096 10/09 A2994 RMK AO1 SLP150
METAR CYNL 111600Z AUTO 08007KT 9SM SCT100 08/08 A2993 RMK AO1 SLP150
METAR CYNL 111500Z AUTO 07006KT 9SM SCT100 06/06 A2994 RMK AO1 SLP154
METAR CYNL 111400Z AUTO 08006KT 9SM SCT100 06/06 A2994 RMK AO1 SLP152
METAR CYNL 111300Z AUTO 08004KT 9SM SCT098 05/05 A2994 RMK AO1 SLP149
METAR CYNL 111200Z AUTO 00000KT 9SM BKN096 02/ A2992 RMK AO1 SLP147
METAR CYNL 111100Z AUTO 04002KT 9SM BKN094 00/ A2993 RMK AO1 SLP148
METAR CYNL 111000Z AUTO 05004KT 9SM CLR M01/ A2993 RMK AO1 SLP152
METAR CYNL 110900Z AUTO 03003KT 9SM FEW098 01/ A2994 RMK AO1 SLP154
METAR CYNL 110800Z AUTO 04003KT 9SM BKN100 02/ A2994 RMK AO1 SLP155
METAR CYNL 110700Z AUTO 06003KT 9SM BKN100 02/ A2996 RMK AO1 SLP161
METAR CYNL 110600Z AUTO 08002KT 9SM BKN100 03/03 A2997 RMK AO1 SLP165
METAR CYNL 110500Z AUTO 00000KT 9SM BKN098 BKN120 04/ A2997 RMK AO1 SLP167
METAR CYNL 110400Z AUTO 09003KT 9SM BKN098 06/06 A2998 RMK AO1 SLP169
METAR CYNL 110300Z AUTO 07004KT 9SM SCT088 BKN110 08/08 A2998 RMK AO1 SLP170
METAR CYNL 110200Z AUTO 03005KT 9SM FEW100 10/10 A2997 RMK AO1 SLP165
METAR CYNL 110100Z AUTO 35006KT 9SM CLR 12/08 A2998 RMK AO1 SLP168
METAR CYNL 110000Z AUTO 32007KT 290V000 9SM BKN096 12/07 A2998 RMK AO1 SLP173
METAR CYNL 102300Z AUTO 34005KT 9SM FEW094 11/09 A3000 RMK AO1 SLP180
METAR CYNL 102200Z AUTO 30007KT 240V000 9SM FEW070 11/07 A3000 RMK AO1 PRESFR SLP185
METAR CYNL 102100Z AUTO 24004KT 9SM CLR 10/07 A3003 RMK AO1 PRESFR SLP194
METAR CYNL 102000Z AUTO 24007KT 9SM FEW160 09/06 A3005 RMK AO1 PRESFR SLP203
METAR CYNL 101900Z AUTO 22006KT 9SM FEW150 07/04 A3008 RMK AO1 SLP213
METAR CYNL 101800Z AUTO 17006KT 9SM SCT052 06/05 A3010 RMK AO1 SLP221
METAR CYNL 101700Z AUTO 16005KT 9SM FEW180 04/02 A3012 RMK AO1 PRESFR SLP229
METAR CYNL 101600Z AUTO 16003KT 9SM CLR 02/M01 A3014 RMK AO1 PRESFR SLP237
METAR CYNL 101500Z AUTO 18005KT 9SM CLR 00/M02 A3016 RMK AO1 PRESFR SLP246
METAR CYNL 101400Z AUTO 17005KT 9SM CLR M02/M03 A3018 RMK AO1 SLP254
METAR CYNL 101300Z AUTO 18006KT 9SM CLR M04/M04 A3019 RMK AO1 SLP258
METAR CYNL 101200Z AUTO 17004KT 9SM CLR M05/M05 A3019 RMK AO1 SLP259
METAR CYNL 101100Z AUTO 16002KT 9SM CLR M07/M07 A3020 RMK AO1 SLP261
METAR CYNL 101000Z AUTO 00000KT 9SM CLR M07/ A3021 RMK AO1 SLP265
METAR CYNL 100900Z AUTO 19002KT 9SM CLR M07/M07 A3022 RMK AO1 SLP268
METAR CYNL 100800Z AUTO 00000KT 9SM CLR M07/ A3022 RMK AO1 SLP268
METAR CYNL 100700Z AUTO 11003KT 9SM CLR M06/M06 A3021 RMK AO1 SLP266
METAR CYNL 100600Z AUTO 00000KT 9SM CLR M05/M05 A3021 RMK AO1 SLP267
METAR CYNL 100500Z AUTO 04003KT 9SM CLR M05/M05 A3021 RMK AO1 SLP266
METAR CYNL 100400Z AUTO 05005KT 9SM CLR M04/M04 A3021 RMK AO1 SLP265
METAR CYNL 100300Z AUTO 02005KT 9SM CLR M03/M03 A3022 RMK AO1 SLP268
METAR CYNL 100200Z AUTO 02007KT 9SM CLR M01/M02 A3021 RMK AO1 SLP265
METAR CYNL 100100Z AUTO 01009G17KT 9SM CLR 01/M01 A3020 RMK AO1 SLP259
METAR CYNL 100000Z AUTO 34011KT 9SM FEW043 02/01 A3018 RMK AO1 SLP255
METAR CYNL 092300Z AUTO 35012G19KT 9SM SCT044 03/M01 A3018 RMK AO1 SLP253
SPECI CYNL 092234Z AUTO 30011G17KT 9SM FEW044 02/M01 A3018 RMK AO1 WSHFT (22)34 SLP254
METAR CYNL 092200Z AUTO 33009G18KT 9SM FEW044 02/M01 A3018 RMK AO1 SLP256
SPECI CYNL 092102Z AUTO 30011G19KT 9SM FEW043 02/M01 A3018 RMK AO1 WSHFT (21)02 SLP255
METAR CYNL 092100Z AUTO 33007G19KT 9SM FEW043 01/M01 A3018 RMK AO1 SLP255
SPECI CYNL 092026Z AUTO 34010G18KT 9SM FEW042 01/M01 A3018 RMK AO1 WSHFT (20)26 SLP253
METAR CYNL 092000Z AUTO 32008G20KT 9SM FEW041 01/M01 A3018 RMK AO1 SLP253
METAR CYNL 091900Z AUTO 31012G21KT 9SM FEW041 M00/M02 A3017 RMK AO1 SLP252
METAR CYNL 091800Z AUTO 32011G19KT 9SM CLR M01/M04 A3017 RMK AO1 SLP252
METAR CYNL 091700Z AUTO 30013KT 9SM CLR M02/M05 A3016 RMK AO1 SLP247
METAR CYNL 091600Z AUTO 32011G18KT 9SM CLR M03/M06 A3015 RMK AO1 SLP243
METAR CYNL 091500Z AUTO 32009G17KT 9SM CLR M04/M07 A3015 RMK AO1 SLP244
METAR CYNL 091400Z AUTO 32010G16KT 9SM CLR M05/M06 A3014 RMK AO1 SLP240
METAR CYNL 091300Z AUTO 31011G18KT 9SM CLR M07/M07 A3013 RMK AO1 SLP236
METAR CYNL 091200Z AUTO 31011G18KT 9SM CLR M07/M07 A3012 RMK AO1 PRESRR SLP229
METAR CYNL 091100Z AUTO 32010G18KT 9SM CLR M08/M08 A3009 RMK AO1 PRESRR SLP218
METAR CYNL 091000Z AUTO 33008G18KT 9SM CLR M07/M07 A3006 RMK AO1 PRESRR SLP206
METAR CYNL 090900Z AUTO 33012G20KT 9SM FEW019 M05/ A3004 RMK AO1 PRESRR SLP197
SPECI CYNL 090827Z AUTO 32014G23KT 9SM SCT016 M04/ A3001 RMK AO1 PRESRR SLP190
SPECI CYNL 090819Z AUTO 32014G29KT 9SM FEW012 BKN016 BKN020 M04/ A3001 RMK AO1 PRESRR SLP188
SPECI CYNL 090808Z AUTO 33013G25KT 9SM BKN014 OVC019 M04/ A3001 RMK AO1 PRESRR SLP186
SPECI CYNL 090805Z AUTO 33014G25KT 9SM SCT012 BKN016 OVC019 M04/ A3000 RMK AO1 PRESRR SLP185
METAR CYNL 090800Z AUTO 33017G25KT 9SM BKN012 OVC016 M04/ A3000 RMK AO1 PRESRR SLP184
METAR CYNL 090700Z AUTO 34018G25KT 9SM OVC013 M03/ A2996 RMK AO1 PRESRR SLP171
METAR CYNL 090600Z AUTO 33014G29KT 5SM OVC014 M03/ A2993 RMK AO1 PRESRR SLP157
SPECI CYNL 090555Z AUTO 33020G29KT 5SM OVC014 M02/ A2992 RMK AO1 PRESRR SLP158
SPECI CYNL 090554Z AUTO 33018G29KT 5SM SCT012 OVC016 M02/ A2992 RMK AO1 PRESRR SLP158
SPECI CYNL 090550Z AUTO 34016G24KT 5SM OVC014 M02/ A2992 RMK AO1 PRESRR SLP155
SPECI CYNL 090549Z AUTO 34013G24KT 5SM OVC015 M02/ A2992 RMK AO1 PRESRR SLP155
SPECI CYNL 090547Z AUTO 33013G24KT 5SM OVC014 M02/ A2991 RMK AO1 PRESRR SLP154
SPECI CYNL 090536Z AUTO 34016G32KT 6SM OVC015 M02/ A2991 RMK AO1 PRESRR SLP151
SPECI CYNL 090502Z AUTO 33016G25KT 9SM BKN014 BKN018 M02/ A2987 RMK AO1 PRESRR SLP141
METAR CYNL 090500Z AUTO 33016G25KT 9SM BKN015 M02/ A2987 RMK AO1 PRESRR SLP139
SPECI CYNL 090443Z AUTO 34019G30KT 9SM BKN015 M02/ A2985 RMK AO1 PRESRR SLP131
SPECI CYNL 090442Z AUTO 33021G30KT 9SM BKN014 M02/ A2985 RMK AO1 PRESRR SLP131
SPECI CYNL 090435Z AUTO 34015G29KT 9SM FEW011 BKN015 M02/ A2984 RMK AO1 PRESRR SLP128
SPECI CYNL 090434Z AUTO 34017G29KT 9SM BKN013 M02/ A2984 RMK AO1 PRESRR SLP127
SPECI CYNL 090431Z AUTO 34014G31KT 9SM FEW010 BKN015 M02/ A2984 RMK AO1 PRESRR SLP126
SPECI CYNL 090427Z AUTO 34021G31KT 9SM FEW010 BKN013 M02/ A2983 RMK AO1 PRESRR SLP125
SPECI CYNL 090425Z AUTO 34018G31KT 9SM FEW008 SCT014 BKN016 M02/ A2983 RMK AO1 PRESRR SLP123
SPECI CYNL 090424Z AUTO 34021G31KT 9SM FEW008 BKN014 M02/ A2982 RMK AO1 PRESRR SLP123
SPECI CYNL 090420Z AUTO 33017G31KT 5SM FEW008 SCT011 BKN015 M02/ A2982 RMK AO1 PRESRR SLP121
SPECI CYNL 090418Z AUTO 34017G29KT 4SM FEW008 SCT011 BKN014 M02/ A2982 RMK AO1 PRESRR SLP120
SPECI CYNL 090417Z AUTO 33018G33KT 3SM FEW008 SCT011 BKN015 M02/ A2982 RMK AO1 PRESRR SLP119
SPECI CYNL 090416Z AUTO 33018G33KT 2 1/2SM VV011 M02/ A2982 RMK AO1 PRESRR SLP119
SPECI CYNL 090415Z AUTO 33017G33KT 1 1/2SM VV012 M02/ A2981 RMK AO1 PRESRR SLP119
SPECI CYNL 090410Z AUTO 33011G34KT 1 1/4SM VV012 M02/ A2980 RMK AO1 PRESRR SLP115
SPECI CYNL 090408Z AUTO 33018G34KT 1 1/2SM VV012 M02/ A2980 RMK AO1 PRESRR SLP114
SPECI CYNL 090405Z AUTO 33025G34KT 1 1/4SM VV013 M02/ A2980 RMK AO1 PRESRR SLP113
SPECI CYNL 090404Z AUTO 33023G34KT 1 1/2SM VV014 M02/ A2980 RMK AO1 PRESRR SLP112
SPECI CYNL 090403Z AUTO 33021G33KT 1 1/2SM VV016 M02/ A2979 RMK AO1 PRESRR SLP112
SPECI CYNL 090401Z AUTO 33022G33KT 1 1/4SM VV017 M02/ A2979 RMK AO1 PRESRR SLP111
METAR CYNL 090400Z AUTO 33022G33KT 1 1/2SM VV018 M02/ A2979 RMK AO1 PRESRR SLP111
SPECI CYNL 090359Z AUTO 33019G33KT 1 3/4SM VV019 M01/ A2979 RMK AO1 PRESRR SLP111
SPECI CYNL 090356Z AUTO 33019G33KT 2SM VV016 M01/ A2979 RMK AO1 PRESRR SLP111
SPECI CYNL 090354Z AUTO 33022G33KT 1 1/2SM VV015 M01/ A2978 RMK AO1 PRESRR SLP110
SPECI CYNL 090348Z AUTO 32019G33KT 1SM VV011 M01/ A2978 RMK AO1 PRESRR SLP107
SPECI CYNL 090347Z AUTO 32017G32KT 5/8SM VV011 M01/ A2978 RMK AO1 PRESRR SLP106
SPECI CYNL 090346Z AUTO 32014G26KT 3/4SM VV011 M00/ A2977 RMK AO1 PRESRR SLP105
SPECI CYNL 090340Z AUTO 33015G26KT 1 1/4SM VV013 M00/ A2976 RMK AO1 PRESRR SLP102
SPECI CYNL 090339Z AUTO 33015G26KT 1 3/4SM VV012 M00/ A2976 RMK AO1 PRESRR SLP102
SPECI CYNL 090338Z AUTO 32018G26KT 2 1/2SM VV013 M00/ A2976 RMK AO1 PRESRR SLP101
SPECI CYNL 090329Z AUTO 33014G27KT 9SM FEW007 BKN011 OVC031 00/ A2975 RMK AO1 PRESRR SLP098
SPECI CYNL 090327Z AUTO 33018G27KT 5SM VV013 00/ A2975 RMK AO1 PRESRR SLP096
SPECI CYNL 090326Z AUTO 32017G27KT 2SM VV011 00/ A2975 RMK AO1 PRESRR SLP096
SPECI CYNL 090325Z AUTO 33017G27KT 1SM VV011 00/ A2975 RMK AO1 PRESRR SLP095
SPECI CYNL 090323Z AUTO 31018G27KT 3/4SM VV011 01/ A2974 RMK AO1 PRESRR SLP093
SPECI CYNL 090321Z AUTO 31015G23KT 1 1/4SM VV011 01/ A2974 RMK AO1 PRESRR SLP092
SPECI CYNL 090313Z AUTO 33011G23KT 1 3/4SM SCT007 BKN012 OVC015 01/ A2972 RMK AO1 PRESRR SLP087
SPECI CYNL 090312Z AUTO 33014G23KT 2 1/2SM SCT007 BKN012 OVC015 01/ A2972 RMK AO1 PRESRR SLP086
SPECI CYNL 090311Z AUTO 32014G23KT 4SM SCT007 BKN009 BKN012 01/ A2972 RMK AO1 PRESRR SLP086
SPECI CYNL 090310Z AUTO 32010G21KT 5SM SCT007 BKN011 BKN012 01/ A2973 RMK AO1 PRESRR SLP086
SPECI CYNL 090309Z AUTO 32011G21KT 4SM BKN007 BKN011 OVC015 01/ A2973 RMK AO1 PRESRR SLP086
SPECI CYNL 090308Z AUTO 32011G21KT 2SM BKN007 BKN011 OVC015 01/ A2972 RMK AO1 PRESRR SLP086
SPECI CYNL 090306Z AUTO 33013G21KT 1 3/4SM SCT007 BKN010 BKN012 01/ A2972 RMK AO1 PRESRR SLP085
SPECI CYNL 090305Z AUTO 32013G21KT 2SM SCT007 BKN010 BKN012 01/ A2972 RMK AO1 PRESRR SLP085
SPECI CYNL 090304Z AUTO 32012G21KT 2 1/2SM SCT007 BKN009 BKN012 01/ A2972 RMK AO1 PRESRR SLP084
METAR CYNL 090300Z AUTO 32009G28KT 3SM BKN007 BKN015 OVC019 01/ A2971 RMK AO1 PRESRR SLP082
SPECI CYNL 090259Z AUTO 32011G28KT 3SM SCT007 BKN009 BKN015 02/ A2971 RMK AO1 PRESRR SLP083
SPECI CYNL 090258Z AUTO 32014G28KT 3SM SCT007 BKN011 BKN015 02/ A2971 RMK AO1 PRESRR SLP083
SPECI CYNL 090248Z AUTO 30013G25KT 3SM BKN007 BKN010 OVC012 02/ A2970 RMK AO1 SLP078
SPECI CYNL 090240Z AUTO 29014G21KT 2 1/2SM SCT008 BKN009 BKN011 02/ A2969 RMK AO1 SLP075
SPECI CYNL 090231Z AUTO 28014G24KT 3SM BKN008 OVC012 02/ A2969 RMK AO1 SLP073
SPECI CYNL 090230Z AUTO 28012G24KT 3SM SCT008 OVC011 03/ A2968 RMK AO1 SLP073
SPECI CYNL 090228Z AUTO 28014G24KT 4SM BKN008 OVC013 03/ A2968 RMK AO1 SLP072
SPECI CYNL 090226Z AUTO 28011G24KT 3SM SCT008 BKN010 OVC013 03/ A2968 RMK AO1 SLP072
SPECI CYNL 090224Z AUTO 28013G24KT 4SM BKN008 OVC013 03/ A2968 RMK AO1 SLP071
SPECI CYNL 090218Z AUTO 27010G19KT 3SM SCT009 BKN012 OVC016 03/ A2968 RMK AO1 SLP070
SPECI CYNL 090217Z AUTO 27010G19KT 2 1/2SM FEW009 BKN012 BKN016 03/ A2968 RMK AO1 SLP070
SPECI CYNL 090216Z AUTO 27011G19KT 3SM SCT010 BKN015 03/ A2968 RMK AO1 SLP070
SPECI CYNL 090214Z AUTO 27012G19KT 3SM SCT010 BKN014 BKN017 03/ A2967 RMK AO1 SLP070
SPECI CYNL 090212Z AUTO 27012G26KT 4SM SCT010 BKN015 03/ A2968 RMK AO1 SLP069
SPECI CYNL 090210Z AUTO 28011G26KT 5SM FEW010 BKN014 BKN018 03/ A2968 RMK AO1 SLP069
SPECI CYNL 090209Z AUTO 28011G26KT 5SM SCT012 BKN017 03/ A2968 RMK AO1 SLP069
SPECI CYNL 090206Z AUTO 27011G26KT 7SM BKN013 BKN018 03/ A2968 RMK AO1 SLP069
METAR CYNL 090200Z AUTO 28012G25KT 5SM BKN016 BKN023 04/ A2968 RMK AO1 SLP069
SPECI CYNL 090136Z AUTO 27018G26KT 9SM BKN024 OVC033 05/ A2967 RMK AO1 SLP067
SPECI CYNL 090133Z AUTO 27015G23KT 9SM BKN025 OVC035 05/ A2967 RMK AO1 SLP067
SPECI CYNL 090128Z AUTO 28016G27KT 9SM SCT026 BKN034 OVC049 05/ A2967 RMK AO1 SLP067
SPECI CYNL 090117Z AUTO 28011G28KT 9SM BKN026 BKN035 05/ A2967 RMK AO1 SLP067
SPECI CYNL 090106Z AUTO 28013G26KT 9SM BKN030 06/ A2967 RMK AO1 SLP066
SPECI CYNL 090105Z AUTO 28013G26KT 9SM BKN029 06/ A2967 RMK AO1 SLP066
METAR CYNL 090100Z AUTO 29019G26KT 9SM SCT028 BKN043 06/ A2967 RMK AO1 SLP065
SPECI CYNL 090030Z AUTO 29015G26KT 9SM BKN030 07/ A2966 RMK AO1 SLP065
SPECI CYNL 090026Z AUTO 30018G26KT 9SM BKN029 BKN036 07/ A2966 RMK AO1 SLP064
METAR CYNL 090000Z AUTO 31013G25KT 8SM FEW021 BKN030 BKN048 08/ A2965 RMK AO1 SLP058
SPECI CYNL 082358Z AUTO 31012G25KT 6SM FEW014 BKN030 BKN048 08/ A2965 RMK AO1 SLP061
SPECI CYNL 082357Z AUTO 31014G25KT 5SM VV027 08/ A2965 RMK AO1 PRESFR SLP061
SPECI CYNL 082356Z AUTO 31014G25KT 4SM FEW020 BKN030 08/ A2965 RMK AO1 PRESFR SLP062
SPECI CYNL 082352Z AUTO 29016G25KT 2SM FEW019 SCT027 BKN033 09/ A2965 RMK AO1 PRESFR SLP061
SPECI CYNL 082351Z AUTO 27018G24KT 1 1/2SM FEW020 SCT027 BKN033 09/ A2965 RMK AO1 PRESFR SLP060
SPECI CYNL 082350Z AUTO 27014G24KT 1 1/4SM FEW020 SCT033 BKN047 09/ A2965 RMK AO1 PRESFR SLP060
SPECI CYNL 082349Z AUTO 28009KT 1 1/2SM FEW025 SCT033 BKN047 10/ A2965 RMK AO1 PRESFR SLP058
SPECI CYNL 082348Z AUTO 29007KT 2SM FEW026 SCT033 BKN047 10/ A2964 RMK AO1 PRESFR SLP056
METAR CYNL 082300Z AUTO 23008KT 9SM SCT090 09/ A2964 RMK AO1 PRESFR SLP057
METAR CYNL 082200Z AUTO 20007KT 9SM BKN047 08/ A2966 RMK AO1 PRESFR SLP064
SPECI CYNL 082133Z AUTO 21007KT 3SM VV041 07/ A2968 RMK AO1 PRESFR SLP072
SPECI CYNL 082132Z AUTO 21007KT 2 1/2SM VV041 07/ A2968 RMK AO1 PRESFR SLP072
METAR CYNL 082100Z AUTO 20010G16KT 9SM BKN052 07/ A2970 RMK AO1 PRESFR SLP079
SPECI CYNL 082015Z AUTO 20011G21KT 8SM FEW013 SCT025 BKN037 06/ A2970 RMK AO1 SLP079
SPECI CYNL 082011Z AUTO 20011G22KT 5SM VV023 06/ A2970 RMK AO1 SLP077
SPECI CYNL 082010Z AUTO 19012G22KT 4SM VV028 07/ A2970 RMK AO1 SLP076
SPECI CYNL 082009Z AUTO 19012G22KT 2 1/2SM VV030 07/ A2970 RMK AO1 SLP077
SPECI CYNL 082006Z AUTO 20016G22KT 1 1/2SM VV036 07/ A2971 RMK AO1 SLP080
SPECI CYNL 082001Z AUTO 20015G21KT 2 1/2SM FEW019 BKN037 OVC048 07/ A2972 RMK AO1 SLP084
METAR CYNL 082000Z AUTO 20014KT 4SM FEW019 BKN037 OVC048 07/ A2972 RMK AO1 SLP085
SPECI CYNL 081942Z AUTO 21008G15KT 3SM SCT037 OVC048 07/ A2974 RMK AO1 PRESFR SLP091
SPECI CYNL 081941Z AUTO 21008G15KT 2SM SCT037 OVC048 07/ A2974 RMK AO1 PRESFR SLP092
SPECI CYNL 081940Z AUTO 21009G15KT 1 3/4SM SCT037 OVC048 07/ A2975 RMK AO1 PRESFR SLP093
SPECI CYNL 081939Z AUTO 21009G15KT 2SM SCT037 OVC048 07/ A2975 RMK AO1 PRESFR SLP093
METAR CYNL 081900Z AUTO 18014G22KT 9SM BKN050 08/ A2974 RMK AO1 PRESFR SLP090
METAR CYNL 081800Z AUTO 17013G20KT 9SM BKN064 06/ A2982 RMK AO1 PRESFR SLP118
SPECI CYNL 081714Z AUTO 18010G18KT 7SM FEW008 SCT046 06/ A2986 RMK AO1 PRESFR SLP134
METAR CYNL 081700Z AUTO 18014G19KT 9SM FEW052 07/07 A2988 RMK AO1 PRESFR SLP138
METAR CYNL 081600Z AUTO 17009KT 9SM FEW007 05/05 A2994 RMK AO1 PRESFR SLP159
SPECI CYNL 081557Z AUTO 16008KT 9SM FEW007 05/05 A2994 RMK AO1 PRESFR SLP159
METAR CYNL 081500Z AUTO 15004KT 9SM BKN082 04/ A2999 RMK AO1 PRESFR SLP176
METAR CYNL 081400Z AUTO 12005KT 9SM BKN100 02/ A3002 RMK AO1 PRESFR SLP188
METAR CYNL 081300Z AUTO 11004KT 9SM BKN096 00/ A3007 RMK AO1 SLP203
METAR CYNL 081200Z AUTO 07003KT 9SM CLR M02/ A3009 RMK AO1 PRESFR SLP209
METAR CYNL 081100Z AUTO 07003KT 9SM CLR M02/ A3012 RMK AO1 PRESFR SLP220
METAR CYNL 081000Z AUTO 07003KT 9SM CLR M01/ A3015 RMK AO1 SLP230
METAR CYNL 080900Z AUTO 12004KT 9SM CLR M01/ A3016 RMK AO1 SLP232
METAR CYNL 080800Z AUTO 00000KT 9SM CLR 00/ A3018 RMK AO1 SLP237
METAR CYNL 080700Z AUTO 09002KT 9SM CLR M01/ A3019 RMK AO1 SLP244
METAR CYNL 080600Z AUTO 00000KT 9SM CLR M00/ A3020 RMK AO1 SLP248
METAR CYNL 080500Z AUTO 10002KT 9SM CLR 01/ A3020 RMK AO1 SLP247
METAR CYNL 080400Z AUTO 08004KT 9SM CLR 02/ A3021 RMK AO1 SLP248
METAR CYNL 080300Z AUTO 11007KT 9SM CLR 04/04 A3020 RMK AO1 SLP246
METAR CYNL 080200Z AUTO 08008KT 9SM CLR 09/09 A3019 RMK AO1 SLP237
METAR CYNL 080100Z AUTO 00007KT 9SM CLR 10/08 A3019 RMK AO1 SLP237
METAR CYNL 080000Z AUTO 31005KT 9SM FEW064 10/09 A3020 RMK AO1 SLP240
METAR CYNL 072300Z AUTO 31008G20KT 9SM FEW062 10/08 A3020 RMK AO1 SLP242
METAR CYNL 072200Z AUTO 31009KT 9SM FEW064 10/08 A3021 RMK AO1 SLP242
METAR CYNL 072100Z AUTO 34009G20KT 9SM CLR 10/08 A3020 RMK AO1 WSHFT (20)51 SLP238
SPECI CYNL 072051Z AUTO 29012G19KT 9SM FEW058 10/08 A3020 RMK AO1 WSHFT (20)51 SLP237
METAR CYNL 072000Z AUTO 31012G19KT 9SM FEW056 09/07 A3020 RMK AO1 SLP238
METAR CYNL 071900Z AUTO 29009G17KT 9SM CLR 08/08 A3019 RMK AO1 WSHFT (18)53 SLP234
SPECI CYNL 071853Z AUTO 29011G19KT 9SM CLR 08/07 A3019 RMK AO1 WSHFT (18)53 SLP233
SPECI CYNL 071849Z AUTO 31014G19KT 280V340 9SM CLR 08/07 A3019 RMK AO1 WSHFT (18)49 SLP232
SPECI CYNL 071807Z AUTO 34010G17KT 9SM CLR 07/06 A3018 RMK AO1 WSHFT (18)07 SLP230
METAR CYNL 071800Z AUTO 30010G17KT 9SM CLR 07/05 A3018 RMK AO1 SLP230
SPECI CYNL 071739Z AUTO 30011G16KT 9SM CLR 07/06 A3018 RMK AO1 WSHFT (17)39 SLP228
METAR CYNL 071700Z AUTO 31009G19KT 9SM CLR 07/04 A3016 RMK AO1 WSHFT (16)55 SLP224
SPECI CYNL 071655Z AUTO 30010G19KT 9SM CLR 07/05 A3016 RMK AO1 WSHFT (16)55 PRESRR SLP223
METAR CYNL 071600Z AUTO 32010G20KT 9SM CLR 06/04 A3015 RMK AO1 PRESRR SLP219
METAR CYNL 071500Z AUTO 34013G21KT 9SM CLR 06/04 A3012 RMK AO1 SLP212
METAR CYNL 071400Z AUTO 32010G19KT 9SM CLR 05/05 A3011 RMK AO1 PRESRR SLP205
SPECI CYNL 071302Z AUTO 32013G20KT 9SM SCT021 04/04 A3008 RMK AO1 PRESRR SLP192
METAR CYNL 071300Z AUTO 32010G19KT 9SM BKN021 04/ A3008 RMK AO1 PRESRR SLP192
SPECI CYNL 071231Z AUTO 33009G22KT 9SM BKN022 03/ A3006 RMK AO1 PRESRR SLP185
METAR CYNL 071200Z AUTO 32006KT 9SM CLR 04/ A3004 RMK AO1 PRESRR SLP176
METAR CYNL 071100Z AUTO 31008G15KT 9SM CLR 05/ A2999 RMK AO1 PRESRR SLP157
METAR CYNL 071000Z AUTO 32013G21KT 9SM CLR 07/07 A2993 RMK AO1 PRESRR SLP136
METAR CYNL 070900Z AUTO 32010G17KT 9SM CLR 09/09 A2991 RMK AO1 PRESRR SLP125
METAR CYNL 070800Z AUTO 31007KT 9SM CLR 10/10 A2988 RMK AO1 PRESRR SLP113
METAR CYNL 070700Z AUTO 31006KT 9SM CLR 11/11 A2985 RMK AO1 PRESRR SLP103
METAR CYNL 070600Z AUTO 29007KT 9SM CLR 12/12 A2983 RMK AO1 SLP096
METAR CYNL 070500Z AUTO 26004KT 9SM CLR 11/11 A2981 RMK AO1 SLP091
METAR CYNL 070400Z AUTO 27003KT 9SM CLR 11/11 A2981 RMK AO1 SLP089
METAR CYNL 070300Z AUTO 27004KT 9SM CLR 14/14 A2980 RMK AO1 SLP087
METAR CYNL 070200Z AUTO 30004KT 9SM CLR 18/16 A2979 RMK AO1 SLP085
METAR CYNL 070100Z AUTO 31007KT 9SM FEW082 19/15 A2979 RMK AO1 SLP087
METAR CYNL 070000Z AUTO 31011G16KT 9SM FEW082 20/16 A2979 RMK AO1 SLP090
METAR CYNL 062300Z AUTO 31007G18KT 9SM CLR 20/18 A2978 RMK AO1 SLP088
METAR CYNL 062200Z AUTO 30013G20KT 9SM FEW082 20/19 A2977 RMK AO1 SLP086
METAR CYNL 062100Z AUTO 31008G21KT 9SM FEW078 20/19 A2976 RMK AO1 SLP083
METAR CYNL 062000Z AUTO 28012G22KT 9SM CLR 20/19 A2974 RMK AO1 SLP078
METAR CYNL 061900Z AUTO 28013G24KT 9SM FEW076 19/19 A2973 RMK AO1 SLP073
METAR CYNL 061800Z AUTO 27016G28KT 9SM CLR 19/19 A2972 RMK AO1 SLP070
METAR CYNL 061700Z AUTO 26010G18KT 9SM CLR 19/19 A2972 RMK AO1 SLP069
METAR CYNL 061600Z AUTO 23011G17KT 9SM CLR 17/17 A2972 RMK AO1 PRESFR SLP074
METAR CYNL 061500Z AUTO 23006KT 9SM CLR 12/12 A2975 RMK AO1 PRESFR SLP087
METAR CYNL 061400Z AUTO 22007KT 9SM CLR 07/ A2977 RMK AO1 PRESFR SLP099
METAR CYNL 061300Z AUTO 20006KT 9SM CLR 03/ A2981 RMK AO1 PRESFR SLP113
METAR CYNL 061200Z AUTO 18005KT 9SM CLR 02/ A2984 RMK AO1 PRESFR SLP123
METAR CYNL 061100Z AUTO 16005KT 9SM BKN096 01/ A2987 RMK AO1 PRESFR SLP132
METAR CYNL 061000Z AUTO 13008KT 9SM OVC092 01/ A2991 RMK AO1 PRESFR SLP144
METAR CYNL 060900Z AUTO 14006KT 9SM FEW006 BKN074 OVC092 01/ A2995 RMK AO1 PRESFR SLP161
SPECI CYNL 060809Z AUTO 16007KT 9SM FEW006 BKN074 OVC092 01/ A2998 RMK AO1 SLP169
METAR CYNL 060800Z AUTO 15006KT 9SM BKN082 01/ A2998 RMK AO1 SLP169
METAR CYNL 060700Z AUTO 13006KT 9SM BKN072 BKN092 01/ A2999 RMK AO1 SLP176
METAR CYNL 060600Z AUTO 14007KT 9SM BKN080 01/ A3001 RMK AO1 SLP183
METAR CYNL 060500Z AUTO 13003KT 9SM BKN080 01/ A3002 RMK AO1 SLP191
METAR CYNL 060400Z AUTO 10004KT 9SM CLR 01/ A3003 RMK AO1 SLP193
METAR CYNL 060300Z AUTO 10004KT 9SM CLR 02/ A3003 RMK AO1 SLP195
METAR CYNL 060200Z AUTO 09006KT 9SM CLR 04/ A3003 RMK AO1 SLP193
METAR CYNL 060100Z AUTO 10009KT 9SM CLR 05/05 A3002 RMK AO1 SLP190
METAR CYNL 060000Z AUTO 09008KT 9SM CLR 07/07 A3001 RMK AO1 SLP185
METAR CYNL 052300Z AUTO 35005KT 9SM CLR 09/09 A3000 RMK AO1 SLP180
METAR CYNL 052200Z AUTO 35008KT 9SM FEW033 09/09 A2999 RMK AO1 SLP178
METAR CYNL 052100Z AUTO 32007KT 9SM FEW034 08/08 A2999 RMK AO1 SLP176
METAR CYNL 052000Z AUTO 33005KT 9SM FEW025 BKN032 08/08 A2998 RMK AO1 SLP174
SPECI CYNL 051956Z AUTO 33008KT 9SM BKN030 07/07 A2998 RMK AO1 SLP174
SPECI CYNL 051946Z AUTO 35009KT 9SM BKN028 08/08 A2997 RMK AO1 SLP173
SPECI CYNL 051936Z AUTO 00005KT 9SM SCT025 BKN032 08/08 A2997 RMK AO1 SLP173
SPECI CYNL 051930Z AUTO 32004KT 9SM BKN025 07/07 A2997 RMK AO1 SLP173
SPECI CYNL 051921Z AUTO 32005KT 9SM SCT023 BKN190 07/07 A2997 RMK AO1 SLP173
SPECI CYNL 051909Z AUTO 35004KT 9SM BKN021 07/07 A2997 RMK AO1 SLP173
SPECI CYNL 051908Z AUTO 34006KT 9SM SCT020 BKN025 07/07 A2997 RMK AO1 SLP173
SPECI CYNL 051907Z AUTO 33005KT 9SM SCT020 07/07 A2997 RMK AO1 SLP173
SPECI CYNL 051906Z AUTO 33004KT 9SM SCT020 BKN025 07/07 A2997 RMK AO1 SLP173
METAR CYNL 051900Z AUTO 00005KT 320V040 9SM BKN020 06/06 A2997 RMK AO1 SLP173
SPECI CYNL 051812Z AUTO 01004KT 9SM SCT012 OVC016 04/ A2997 RMK AO1 SLP174
METAR CYNL 051800Z AUTO 07003KT 030V110 9SM BKN011 OVC017 04/ A2996 RMK AO1 SLP174
METAR CYNL 051700Z AUTO 00000KT 9SM FEW007 SCT009 OVC013 03/ A2996 RMK AO1 SLP174
SPECI CYNL 051656Z AUTO 00000KT 9SM SCT007 OVC012 02/ A2996 RMK AO1 SLP173
METAR CYNL 051600Z AUTO 14005KT 9SM OVC006 01/ A2995 RMK AO1 SLP171
METAR CYNL 051500Z AUTO 15005KT 9SM OVC006 M01/ A2994 RMK AO1 SLP171
METAR CYNL 051400Z AUTO 13005KT 9SM BKN007 BKN009 OVC015 M02/ A2995 RMK AO1 SLP172
SPECI CYNL 051352Z AUTO 12005KT 9SM SCT007 BKN009 OVC015 M02/ A2995 RMK AO1 SLP170
SPECI CYNL 051351Z AUTO 12005KT 9SM SCT007 BKN010 OVC015 M02/ A2995 RMK AO1 SLP170
SPECI CYNL 051349Z AUTO 13005KT 9SM SCT007 BKN009 OVC015 M02/ A2995 RMK AO1 SLP171
SPECI CYNL 051341Z AUTO 13004KT 4SM FEW007 BKN011 OVC015 M02/ A2995 RMK AO1 SLP171
SPECI CYNL 051334Z AUTO 14006KT 2SM FEW006 BKN011 OVC015 M02/ A2995 RMK AO1 SLP171
SPECI CYNL 051331Z AUTO 13006KT 1 1/2SM VV014 M02/ A2995 RMK AO1 SLP171
SPECI CYNL 051327Z AUTO 14006KT 1SM VV012 M02/ A2995 RMK AO1 SLP171
SPECI CYNL 051319Z AUTO 15005KT 3/4SM VV011 M02/ A2996 RMK AO1 SLP172
SPECI CYNL 051316Z AUTO 15006KT 5/8SM VV011 M02/ A2996 RMK AO1 SLP172
SPECI CYNL 051306Z AUTO 14005KT 3/4SM VV011 M02/ A2995 RMK AO1 SLP172
METAR CYNL 051300Z AUTO 14006KT 1SM VV011 M02/ A2996 RMK AO1 SLP172
SPECI CYNL 051249Z AUTO 13007KT 1 1/4SM FEW003 OVC012 M02/ A2996 RMK AO1 SLP171
SPECI CYNL 051248Z AUTO 13006KT 1 1/2SM FEW003 OVC012 M02/ A2996 RMK AO1 SLP171
SPECI CYNL 051246Z AUTO 13006KT 1SM FEW003 OVC012 M02/ A2996 RMK AO1 SLP171
SPECI CYNL 051245Z AUTO 13006KT 1SM VV012 M02/ A2996 RMK AO1 SLP171
SPECI CYNL 051243Z AUTO 14005KT 3/4SM VV012 M02/ A2996 RMK AO1 SLP172
SPECI CYNL 051239Z AUTO 13006KT 1SM VV012 M02/ A2996 RMK AO1 SLP172
SPECI CYNL 051238Z AUTO 13006KT 3/4SM VV012 M02/ A2996 RMK AO1 SLP172
SPECI CYNL 051235Z AUTO 14006KT 5/8SM OVC012 M02/ A2996 RMK AO1 SLP173
SPECI CYNL 051233Z AUTO 13006KT 1SM OVC012 M02/ A2996 RMK AO1 SLP173
SPECI CYNL 051232Z AUTO 13006KT 1 1/2SM OVC012 M02/ A2997 RMK AO1 SLP174
SPECI CYNL 051228Z AUTO 14005KT 1SM OVC012 M02/ A2997 RMK AO1 SLP174
SPECI CYNL 051227Z AUTO 14005KT 1 1/2SM BKN012 OVC015 M02/ A2997 RMK AO1 SLP174
SPECI CYNL 051208Z AUTO 14006KT 2SM FEW011 OVC014 M02/ A2997 RMK AO1 SLP176
SPECI CYNL 051203Z AUTO 14006KT 1 1/2SM FEW011 BKN014 OVC018 M02/ A2997 RMK AO1 SLP176
SPECI CYNL 051201Z AUTO 14007KT 1 1/4SM VV014 M02/ A2997 RMK AO1 SLP176
METAR CYNL 051200Z AUTO 14006KT 1 1/2SM VV014 M02/ A2997 RMK AO1 SLP176
SPECI CYNL 051156Z AUTO 14005KT 1 1/4SM VV014 M02/ A2998 RMK AO1 SLP176
SPECI CYNL 051153Z AUTO 14005KT 1 1/2SM VV014 M02/ A2998 RMK AO1 SLP176
SPECI CYNL 051151Z AUTO 14006KT 1 1/4SM VV014 M02/ A2997 RMK AO1 SLP176
SPECI CYNL 051150Z AUTO 14006KT 1 1/2SM VV014 M02/ A2997 RMK AO1 SLP176
SPECI CYNL 051148Z AUTO 13006KT 2SM SCT012 BKN018 M02/ A2997 RMK AO1 SLP176
SPECI CYNL 051144Z AUTO 14006KT 1 1/2SM FEW011 SCT015 BKN019 M02/ A2997 RMK AO1 SLP175
SPECI CYNL 051141Z AUTO 14007KT 2 1/2SM FEW011 BKN018 M02/ A2997 RMK AO1 SLP175
SPECI CYNL 051119Z AUTO 14006KT 9SM BKN021 M02/ A2997 RMK AO1 SLP175
METAR CYNL 051100Z AUTO 13004KT 9SM CLR M02/ A2997 RMK AO1 SLP175
METAR CYNL 051000Z AUTO 14005KT 9SM FEW074 M02/ A2999 RMK AO1 SLP181
METAR CYNL 050900Z AUTO 14005KT 9SM FEW080 M03/ A3000 RMK AO1 SLP185
METAR CYNL 050800Z AUTO 13003KT 9SM SCT072 M03/ A3000 RMK AO1 SLP188
METAR CYNL 050700Z AUTO 10003KT 9SM CLR M03/ A3000 RMK AO1 SLP190
METAR CYNL 050600Z AUTO 08002KT 9SM CLR M03/ A3000 RMK AO1 SLP190
METAR CYNL 050500Z AUTO 10003KT 9SM CLR M02/ A3001 RMK AO1 SLP191
METAR CYNL 050400Z AUTO 09002KT 9SM CLR M02/ A3001 RMK AO1 SLP194
METAR CYNL 050300Z AUTO 10004KT 9SM CLR M01/M01 A3001 RMK AO1 SLP193
METAR CYNL 050200Z AUTO 11007KT 9SM CLR 02/02 A3001 RMK AO1 SLP191
METAR CYNL 050100Z AUTO 04002KT 9SM CLR 04/04 A3001 RMK AO1 SLP187
METAR CYNL 050000Z AUTO 00000KT 9SM CLR 04/04 A3000 RMK AO1 SLP184
METAR CYNL 042300Z AUTO 30005KT 250V000 9SM CLR 05/02 A2999 RMK AO1 SLP182
METAR CYNL 042200Z AUTO 34005KT 300V020 9SM CLR 04/01 A3000 RMK AO1 SLP182
METAR CYNL 042100Z AUTO 33005KT 290V000 9SM CLR 04/01 A2999 RMK AO1 SLP179
METAR CYNL 042000Z AUTO 32007KT 280V000 9SM CLR 03/01 A2999 RMK AO1 SLP177
METAR CYNL 041900Z AUTO 29003KT 9SM FEW023 01/01 A2998 RMK AO1 SLP177
SPECI CYNL 041837Z AUTO 33009KT 300V000 9SM SCT021 01/01 A2998 RMK AO1 SLP178
METAR CYNL 041800Z AUTO 33006KT 9SM SCT015 BKN019 01/01 A2998 RMK AO1 SLP179
SPECI CYNL 041740Z AUTO 32007KT 290V350 9SM OVC015 M00/M00 A2998 RMK AO1 PRESRR SLP180
METAR CYNL 041700Z AUTO 30008KT 9SM OVC014 M01/M01 A2997 RMK AO1 PRESRR SLP178
METAR CYNL 041600Z AUTO 34007KT 9SM BKN011 OVC014 M01/ A2995 RMK AO1 PRESRR SLP173
SPECI CYNL 041511Z AUTO 32007KT 9SM OVC010 M02/ A2993 RMK AO1 SLP166
METAR CYNL 041500Z AUTO 34011KT 9SM OVC009 M02/ A2993 RMK AO1 SLP166
SPECI CYNL 041439Z AUTO 32011G18KT 9SM BKN009 OVC011 M02/ A2993 RMK AO1 PRESRR SLP163
METAR CYNL 041400Z AUTO 33010G17KT 9SM BKN010 BKN012 OVC014 M02/ A2992 RMK AO1 PRESRR SLP160
SPECI CYNL 041351Z AUTO 33009G16KT 9SM BKN010 BKN012 OVC014 M02/ A2991 RMK AO1 PRESRR SLP156
SPECI CYNL 041348Z AUTO 33009KT 9SM BKN009 BKN012 OVC014 M02/ A2991 RMK AO1 PRESRR SLP156
METAR CYNL 041300Z AUTO 33008G20KT 9SM FEW008 SCT011 OVC013 M02/ A2989 RMK AO1 PRESRR SLP149
SPECI CYNL 041245Z AUTO 33014G22KT 9SM SCT008 BKN010 OVC014 M02/ A2989 RMK AO1 PRESRR SLP147
SPECI CYNL 041243Z AUTO 33013G22KT 6SM VV010 M02/ A2988 RMK AO1 PRESRR SLP146
SPECI CYNL 041242Z AUTO 33011G17KT 2SM VV009 M02/ A2988 RMK AO1 PRESRR SLP146
SPECI CYNL 041241Z AUTO 33010G17KT 1 1/4SM VV008 M02/ A2988 RMK AO1 PRESRR SLP146
SPECI CYNL 041240Z AUTO 33010G17KT 3/4SM VV008 M02/ A2988 RMK AO1 PRESRR SLP146
SPECI CYNL 041237Z AUTO 33008KT 3/8SM VV009 M02/ A2988 RMK AO1 PRESRR SLP145
SPECI CYNL 041233Z AUTO 33008KT 5/8SM VV012 M02/ A2988 RMK AO1 PRESRR SLP144
SPECI CYNL 041232Z AUTO 33008KT 1SM VV012 M02/ A2988 RMK AO1 PRESRR SLP144
SPECI CYNL 041228Z AUTO 32007KT 3SM VV011 M02/ A2988 RMK AO1 PRESRR SLP143
SPECI CYNL 041227Z AUTO 33006KT 2SM VV011 M02/ A2987 RMK AO1 PRESRR SLP143
SPECI CYNL 041226Z AUTO 33007KT 1 1/2SM VV011 M02/ A2987 RMK AO1 PRESRR SLP142
SPECI CYNL 041224Z AUTO 33007KT 1 1/4SM SCT009 BKN016 M02/ A2987 RMK AO1 PRESRR SLP142
SPECI CYNL 041223Z AUTO 32006KT 1 3/4SM SCT009 BKN016 M02/ A2987 RMK AO1 PRESRR SLP142
SPECI CYNL 041222Z AUTO 32007KT 2SM FEW009 BKN016 M02/ A2987 RMK AO1 PRESRR SLP141
SPECI CYNL 041221Z AUTO 33009KT 2 1/2SM FEW010 BKN016 M02/ A2987 RMK AO1 PRESRR SLP141
SPECI CYNL 041217Z AUTO 32008KT 9SM FEW010 BKN016 M02/ A2987 RMK AO1 PRESRR SLP141
METAR CYNL 041200Z AUTO 34011G18KT 9SM FEW008 SCT011 M02/ A2986 RMK AO1 PRESRR SLP138
SPECI CYNL 041159Z AUTO 33011G18KT 9SM FEW008 SCT011 BKN030 M02/ A2986 RMK AO1 PRESRR SLP138
SPECI CYNL 041156Z AUTO 33010G18KT 9SM FEW008 SCT012 BKN019 M02/ A2986 RMK AO1 PRESRR SLP138
SPECI CYNL 041154Z AUTO 33012G18KT 9SM SCT011 BKN019 M02/ A2986 RMK AO1 PRESRR SLP138
SPECI CYNL 041152Z AUTO 34009KT 9SM SCT011 BKN030 M02/ A2986 RMK AO1 PRESRR SLP138
SPECI CYNL 041120Z AUTO 33009G19KT 9SM BKN013 BKN017 M02/ A2985 RMK AO1 PRESRR SLP134
SPECI CYNL 041119Z AUTO 33010G19KT 9SM SCT012 BKN016 M02/ A2985 RMK AO1 PRESRR SLP134
SPECI CYNL 041118Z AUTO 33009G22KT 9SM BKN012 BKN016 M02/ A2985 RMK AO1 PRESRR SLP134
SPECI CYNL 041101Z AUTO 32012G19KT 9SM FEW010 SCT013 BKN015 M01/ A2984 RMK AO1 PRESRR SLP131
METAR CYNL 041100Z AUTO 32011G19KT 8SM FEW010 BKN014 OVC020 M01/ A2984 RMK AO1 PRESRR SLP131
SPECI CYNL 041046Z AUTO 31013KT 9SM SCT010 OVC017 M01/ A2983 RMK AO1 PRESRR SLP128
SPECI CYNL 041043Z AUTO 31008G16KT 6SM SCT010 BKN014 OVC020 M01/ A2983 RMK AO1 PRESRR SLP127
SPECI CYNL 041039Z AUTO 31008G16KT 6SM FEW009 SCT012 OVC020 M01/ A2983 RMK AO1 PRESRR SLP127
SPECI CYNL 041038Z AUTO 31008G17KT 6SM SCT011 OVC020 M01/ A2983 RMK AO1 PRESRR SLP126
SPECI CYNL 041037Z AUTO 31009G17KT 3SM FEW010 BKN012 OVC020 M01/ A2983 RMK AO1 PRESRR SLP126
SPECI CYNL 041035Z AUTO 31008G18KT 2 1/2SM BKN011 OVC020 M01/ A2983 RMK AO1 PRESRR SLP126
SPECI CYNL 041022Z AUTO 31009G18KT 4SM SCT009 BKN012 BKN016 M01/ A2982 RMK AO1 PRESRR SLP121
SPECI CYNL 041016Z AUTO 32011G18KT 9SM BKN010 BKN012 OVC021 M01/ A2981 RMK AO1 PRESRR SLP120
SPECI CYNL 041014Z AUTO 31011G18KT 9SM BKN009 OVC012 M01/ A2981 RMK AO1 PRESRR SLP120
SPECI CYNL 041013Z AUTO 30012G18KT 5SM VV010 M01/ A2981 RMK AO1 PRESRR SLP119
SPECI CYNL 041012Z AUTO 30013G18KT 2SM VV010 M01/ A2981 RMK AO1 PRESRR SLP119
SPECI CYNL 041009Z AUTO 30011G18KT 1SM VV010 M01/ A2981 RMK AO1 PRESRR SLP119
SPECI CYNL 041008Z AUTO 30011G18KT 3/4SM VV010 M01/ A2981 RMK AO1 PRESRR SLP118
SPECI CYNL 041007Z AUTO 30012G18KT 5/8SM VV010 M01/ A2981 RMK AO1 PRESRR SLP118
SPECI CYNL 041004Z AUTO 31009G18KT 3/4SM VV010 M00/ A2981 RMK AO1 PRESRR SLP118
METAR CYNL 041000Z AUTO 30011G18KT 1 1/4SM VV011 M00/ A2980 RMK AO1 PRESRR SLP117
SPECI CYNL 040958Z AUTO 30012G18KT 1 1/2SM VV012 M00/ A2980 RMK AO1 PRESRR SLP117
SPECI CYNL 040951Z AUTO 31010G20KT 1SM VV010 M00/ A2980 RMK AO1 SLP115
SPECI CYNL 040950Z AUTO 30009G20KT 3/4SM VV011 00/ A2980 RMK AO1 SLP115
SPECI CYNL 040949Z AUTO 30011G20KT 1SM VV011 00/ A2980 RMK AO1 SLP115
SPECI CYNL 040948Z AUTO 30011G20KT 3/4SM VV011 00/ A2980 RMK AO1 SLP115
SPECI CYNL 040944Z AUTO 30013G20KT 3/4SM SCT005 BKN009 OVC011 00/ A2980 RMK AO1 SLP114
SPECI CYNL 040943Z AUTO 30013G20KT 5/8SM SCT005 OVC009 00/ A2980 RMK AO1 SLP114
SPECI CYNL 040940Z AUTO 30010G16KT 3/4SM VV008 00/ A2980 RMK AO1 SLP113
SPECI CYNL 040938Z AUTO 30009G16KT 5/8SM VV009 00/ A2979 RMK AO1 SLP113
SPECI CYNL 040936Z AUTO 30010G18KT 3/4SM VV009 00/ A2979 RMK AO1 SLP112
SPECI CYNL 040928Z AUTO 29012G18KT 5/8SM BKN005 BKN007 OVC011 01/ A2979 RMK AO1 SLP111
SPECI CYNL 040926Z AUTO 30009G21KT 1 3/4SM BKN006 OVC009 01/ A2979 RMK AO1 SLP110
METAR CYNL 040900Z AUTO 28013G19KT 9SM BKN008 BKN011 OVC014 02/ A2978 RMK AO1 SLP105
SPECI CYNL 040821Z AUTO 27006KT 3SM BKN007 BKN010 OVC020 02/ A2976 RMK AO1 SLP100
SPECI CYNL 040816Z AUTO 26006KT 2SM FEW006 BKN008 OVC021 02/ A2977 RMK AO1 SLP101
SPECI CYNL 040813Z AUTO 26007KT 2SM SCT008 BKN011 OVC020 02/ A2977 RMK AO1 SLP101
SPECI CYNL 040812Z AUTO 26007KT 1 3/4SM SCT008 BKN011 OVC021 02/ A2977 RMK AO1 SLP101
SPECI CYNL 040811Z AUTO 26008KT 2SM SCT009 BKN011 OVC020 02/ A2977 RMK AO1 SLP101
SPECI CYNL 040808Z AUTO 25007KT 2 1/2SM FEW009 SCT011 OVC020 02/ A2977 RMK AO1 SLP101
SPECI CYNL 040807Z AUTO 25009KT 4SM FEW009 SCT011 OVC020 02/ A2977 RMK AO1 SLP101
METAR CYNL 040800Z AUTO 25006KT 9SM FEW010 OVC020 02/ A2977 RMK AO1 SLP102
SPECI CYNL 040729Z AUTO 23005KT 9SM SCT012 BKN015 OVC019 01/ A2977 RMK AO1 SLP104
SPECI CYNL 040718Z AUTO 23005KT 9SM OVC013 01/ A2977 RMK AO1 SLP104
SPECI CYNL 040717Z AUTO 24004KT 9SM SCT012 OVC016 01/ A2977 RMK AO1 SLP104
SPECI CYNL 040716Z AUTO 23004KT 9SM BKN012 OVC016 01/ A2977 RMK AO1 SLP104
SPECI CYNL 040712Z AUTO 24004KT 9SM SCT012 OVC016 01/ A2977 RMK AO1 SLP104
SPECI CYNL 040710Z AUTO 23004KT 9SM BKN014 OVC018 01/ A2977 RMK AO1 SLP104
METAR CYNL 040700Z AUTO 23004KT 9SM BKN016 OVC024 01/ A2977 RMK AO1 SLP104
SPECI CYNL 040631Z AUTO 23004KT 9SM BKN024 OVC031 01/ A2977 RMK AO1 SLP105
SPECI CYNL 040623Z AUTO 22004KT 9SM OVC029 00/ A2977 RMK AO1 SLP105
METAR CYNL 040600Z AUTO 24003KT 9SM SCT033 BKN042 OVC066 M00/ A2977 RMK AO1 SLP107
METAR CYNL 040500Z AUTO 00000KT 9SM FEW001 M01/ A2979 RMK AO1 SLP113
SPECI CYNL 040435Z AUTO 00000KT 3SM FEW001 M01/ A2979 RMK AO1 SLP113
METAR CYNL 040400Z AUTO 00000KT 9SM CLR M00/ A2979 RMK AO1 SLP112
SPECI CYNL 040319Z AUTO 00000KT 9SM FEW014 SCT019 01/ A2979 RMK AO1 SLP113
SPECI CYNL 040306Z AUTO 31002KT 9SM SCT015 BKN020 01/ A2979 RMK AO1 SLP113
SPECI CYNL 040302Z AUTO 31002KT 9SM SCT015 02/ A2979 RMK AO1 SLP112
METAR CYNL 040300Z AUTO 30003KT 9SM SCT015 BKN017 02/ A2979 RMK AO1 SLP112
SPECI CYNL 040250Z AUTO 30004KT 9SM BKN016 02/ A2979 RMK AO1 SLP112
METAR CYNL 040200Z AUTO 34004KT 9SM FEW026 04/ A2978 RMK AO1 SLP106
SPECI CYNL 040146Z AUTO 32003KT 9SM SCT025 04/ A2978 RMK AO1 PRESRR SLP106
SPECI CYNL 040145Z AUTO 32003KT 9SM BKN025 04/ A2978 RMK AO1 PRESRR SLP106
SPECI CYNL 040139Z AUTO 33005KT 9SM BKN024 04/ A2978 RMK AO1 PRESRR SLP105
SPECI CYNL 040138Z AUTO 34004KT 9SM FEW021 BKN026 04/ A2978 RMK AO1 PRESRR SLP105
SPECI CYNL 040135Z AUTO 34003KT 9SM OVC024 03/ A2978 RMK AO1 PRESRR SLP106
SPECI CYNL 040132Z AUTO 33004KT 9SM FEW009 SCT020 OVC025 03/ A2978 RMK AO1 PRESRR SLP107
SPECI CYNL 040109Z AUTO 33004KT 4SM FEW008 SCT011 BKN015 03/ A2978 RMK AO1 PRESRR SLP106
SPECI CYNL 040106Z AUTO 33005KT 3SM FEW008 SCT010 BKN014 03/ A2978 RMK AO1 PRESRR SLP105
SPECI CYNL 040105Z AUTO 33005KT 2 1/2SM FEW008 SCT010 BKN014 03/ A2978 RMK AO1 PRESRR SLP105
METAR CYNL 040100Z AUTO 33006KT 6SM FEW008 SCT010 OVC023 03/ A2977 RMK AO1 PRESRR SLP105
SPECI CYNL 040017Z AUTO 00006KT 3SM SCT006 OVC015 03/ A2976 RMK AO1 PRESRR SLP099
SPECI CYNL 040010Z AUTO 00007KT 3SM FEW007 SCT011 BKN013 03/ A2975 RMK AO1 PRESRR SLP097
METAR CYNL 040000Z AUTO 35005KT 9SM SCT007 BKN015 OVC021 03/ A2975 RMK AO1 PRESRR SLP096
SPECI CYNL 032359Z AUTO 35006KT 9SM FEW007 SCT010 BKN015 03/ A2975 RMK AO1 PRESRR SLP096
SPECI CYNL 032353Z AUTO 33005KT 5SM SCT007 BKN011 OVC015 03/ A2975 RMK AO1 PRESRR SLP096
SPECI CYNL 032352Z AUTO 33006KT 3SM BKN007 BKN011 OVC016 03/ A2975 RMK AO1 PRESRR SLP096
SPECI CYNL 032349Z AUTO 34006KT 2 1/2SM BKN007 OVC010 03/ A2975 RMK AO1 PRESRR SLP096
SPECI CYNL 032339Z AUTO 35007KT 9SM BKN008 BKN010 OVC013 03/ A2974 RMK AO1 PRESRR SLP094
SPECI CYNL 032323Z AUTO 34007KT 9SM FEW008 BKN010 OVC013 03/ A2973 RMK AO1 PRESRR SLP091
SPECI CYNL 032319Z AUTO 33008KT 9SM BKN009 OVC013 03/ A2973 RMK AO1 PRESRR SLP090
SPECI CYNL 032309Z AUTO 35008KT 8SM FEW005 SCT008 OVC013 03/ A2972 RMK AO1 PRESRR SLP087
SPECI CYNL 032308Z AUTO 35008KT 7SM FEW005 BKN008 OVC013 03/ A2972 RMK AO1 PRESRR SLP087
SPECI CYNL 032305Z AUTO 34005KT 6SM FEW005 SCT009 OVC013 03/ A2972 RMK AO1 PRESRR SLP086
METAR CYNL 032300Z AUTO 34008KT 7SM SCT005 BKN009 OVC013 03/ A2972 RMK AO1 PRESRR SLP086
METAR CYNL 032200Z AUTO 00006KT 9SM OVC006 03/ A2969 RMK AO1 PRESRR SLP076
METAR CYNL 032100Z AUTO 02005KT 9SM BKN005 OVC007 03/ A2966 RMK AO1 SLP065
SPECI CYNL 032053Z AUTO 02005KT 9SM OVC005 03/ A2965 RMK AO1 PRESRR SLP063
METAR CYNL 032000Z AUTO 02003KT 9SM OVC003 03/ A2964 RMK AO1 PRESRR SLP059
SPECI CYNL 031936Z AUTO 07002KT 9SM OVC003 03/ A2963 RMK AO1 SLP057
SPECI CYNL 031908Z AUTO 07004KT 5SM OVC002 03/ A2962 RMK AO1 SLP053
METAR CYNL 031900Z AUTO 04004KT 4SM OVC003 02/ A2962 RMK AO1 SLP053
SPECI CYNL 031842Z AUTO 07003KT 3SM OVC003 02/ A2962 RMK AO1 SLP051
SPECI CYNL 031840Z AUTO 06003KT 2 1/2SM OVC003 02/ A2962 RMK AO1 SLP051
SPECI CYNL 031839Z AUTO 06003KT 3SM OVC003 02/ A2962 RMK AO1 SLP051
SPECI CYNL 031819Z AUTO 06003KT 2SM OVC003 02/ A2961 RMK AO1 SLP050
SPECI CYNL 031814Z AUTO 08002KT 1 1/2SM OVC003 02/ A2961 RMK AO1 SLP049
SPECI CYNL 031808Z AUTO 04003KT 1SM OVC003 02/ A2961 RMK AO1 SLP049
SPECI CYNL 031806Z AUTO 05002KT 3/4SM OVC003 02/ A2961 RMK AO1 SLP049
SPECI CYNL 031803Z AUTO 08003KT 5/8SM OVC003 02/ A2961 RMK AO1 SLP049
SPECI CYNL 031802Z AUTO 08003KT 3/4SM OVC003 02/ A2961 RMK AO1 SLP049
METAR CYNL 031800Z AUTO 07002KT 1SM OVC003 02/ A2961 RMK AO1 SLP049
SPECI CYNL 031749Z AUTO 07003KT 1 1/4SM OVC003 02/ A2960 RMK AO1 SLP047
SPECI CYNL 031745Z AUTO 06002KT 1 3/4SM OVC003 02/ A2960 RMK AO1 SLP046
SPECI CYNL 031739Z AUTO 07003KT 2 1/2SM OVC003 02/ A2960 RMK AO1 SLP046
SPECI CYNL 031729Z AUTO 07004KT 4SM OVC003 02/ A2960 RMK AO1 SLP046
SPECI CYNL 031718Z AUTO 07003KT 3SM OVC002 02/ A2960 RMK AO1 SLP046
SPECI CYNL 031717Z AUTO 07004KT 2 1/2SM OVC002 02/ A2960 RMK AO1 SLP046
SPECI CYNL 031715Z AUTO 07004KT 1 1/2SM OVC002 02/ A2960 RMK AO1 SLP046
SPECI CYNL 031706Z AUTO 07003KT 1SM OVC002 02/ A2960 RMK AO1 SLP045
METAR CYNL 031700Z AUTO 07003KT 3/4SM OVC002 02/ A2960 RMK AO1 SLP045
SPECI CYNL 031659Z AUTO 07004KT 3/4SM OVC002 02/ A2960 RMK AO1 SLP045
SPECI CYNL 031658Z AUTO 07003KT 1SM OVC002 02/ A2960 RMK AO1 SLP045
SPECI CYNL 031640Z AUTO 09004KT 1 1/4SM OVC003 02/ A2960 RMK AO1 SLP045
SPECI CYNL 031618Z AUTO 09003KT 1 3/4SM OVC003 02/ A2959 RMK AO1 SLP043
SPECI CYNL 031617Z AUTO 10004KT 2SM OVC003 02/ A2959 RMK AO1 SLP043
SPECI CYNL 031613Z AUTO 09003KT 1 3/4SM OVC004 02/ A2959 RMK AO1 SLP042
SPECI CYNL 031610Z AUTO 11004KT 2SM OVC004 02/ A2959 RMK AO1 SLP042
SPECI CYNL 031608Z AUTO 12004KT 1 3/4SM OVC004 02/ A2959 RMK AO1 SLP042
SPECI CYNL 031606Z AUTO 12004KT 2 1/2SM OVC004 02/ A2959 RMK AO1 SLP042
METAR CYNL 031600Z AUTO 12003KT 4SM OVC004 02/ A2959 RMK AO1 SLP042
SPECI CYNL 031535Z AUTO 09007KT 3SM OVC003 02/02 A2958 RMK AO1 SLP041
SPECI CYNL 031532Z AUTO 10006KT 2SM OVC003 02/02 A2958 RMK AO1 SLP041
SPECI CYNL 031531Z AUTO 10006KT 1 3/4SM OVC003 02/02 A2958 RMK AO1 SLP041
SPECI CYNL 031522Z AUTO 10004KT 2SM OVC003 02/02 A2958 RMK AO1 SLP041
SPECI CYNL 031521Z AUTO 10005KT 1 3/4SM OVC003 02/02 A2958 RMK AO1 SLP041
SPECI CYNL 031513Z AUTO 10006KT 2 1/2SM OVC003 02/02 A2958 RMK AO1 SLP041
METAR CYNL 031500Z AUTO 10005KT 9SM OVC003 02/02 A2958 RMK AO1 SLP040
METAR CYNL 031400Z AUTO 11005KT 9SM OVC003 01/01 A2959 RMK AO1 SLP041
METAR CYNL 031300Z AUTO 12004KT 8SM BKN004 OVC026 01/01 A2959 RMK AO1 SLP042
SPECI CYNL 031258Z AUTO 12004KT 9SM BKN004 OVC026 01/01 A2959 RMK AO1 SLP041
SPECI CYNL 031254Z AUTO 12005KT 9SM SCT004 BKN020 OVC026 01/01 A2959 RMK AO1 SLP041
SPECI CYNL 031242Z AUTO 11008KT 8SM FEW004 SCT008 OVC025 01/01 A2959 RMK AO1 SLP039
SPECI CYNL 031236Z AUTO 10007KT 4SM FEW004 SCT008 BKN016 01/01 A2959 RMK AO1 SLP039
SPECI CYNL 031233Z AUTO 11007KT 4SM FEW004 SCT007 BKN010 01/01 A2959 RMK AO1 SLP039
SPECI CYNL 031226Z AUTO 11007KT 4SM VV014 01/01 A2959 RMK AO1 SLP039
SPECI CYNL 031222Z AUTO 11007KT 3SM VV015 01/01 A2959 RMK AO1 SLP040
SPECI CYNL 031219Z AUTO 11007KT 3SM VV011 01/01 A2959 RMK AO1 SLP040
SPECI CYNL 031218Z AUTO 11007KT 2 1/2SM VV010 01/01 A2959 RMK AO1 SLP040
SPECI CYNL 031217Z AUTO 11007KT 2SM VV009 01/01 A2959 RMK AO1 SLP040
SPECI CYNL 031214Z AUTO 11008KT 1 3/4SM VV013 01/01 A2959 RMK AO1 SLP040
SPECI CYNL 031206Z AUTO 11007KT 1 3/4SM VV018 01/01 A2959 RMK AO1 SLP041
SPECI CYNL 031205Z AUTO 11006KT 2SM VV019 01/01 A2959 RMK AO1 SLP041
METAR CYNL 031200Z AUTO 11007KT 5SM OVC018 01/01 A2959 RMK AO1 SLP041
SPECI CYNL 031126Z AUTO 11006KT 7SM FEW007 BKN020 OVC025 01/01 A2960 RMK AO1 SLP041
SPECI CYNL 031110Z AUTO 08005KT 9SM OVC024 01/01 A2960 RMK AO1 SLP041
SPECI CYNL 031101Z AUTO 09005KT 7SM FEW008 OVC027 01/01 A2960 RMK AO1 SLP042
METAR CYNL 031100Z AUTO 09005KT 7SM VV020 01/01 A2960 RMK AO1 SLP042
SPECI CYNL 031058Z AUTO 09005KT 7SM VV024 01/01 A2960 RMK AO1 SLP042
SPECI CYNL 031042Z AUTO 11004KT 6SM VV025 01/01 A2961 RMK AO1 SLP043
SPECI CYNL 031037Z AUTO 10006KT 6SM VV023 01/01 A2960 RMK AO1 SLP042
SPECI CYNL 031024Z AUTO 08006KT 6SM VV025 01/01 A2960 RMK AO1 SLP041
SPECI CYNL 031018Z AUTO 09007KT 3SM VV024 01/01 A2960 RMK AO1 SLP041
SPECI CYNL 031017Z AUTO 09007KT 2 1/2SM VV024 01/01 A2960 RMK AO1 SLP042
SPECI CYNL 031012Z AUTO 09007KT 5SM VV029 01/01 A2961 RMK AO1 SLP043
METAR CYNL 031000Z AUTO 10007KT 9SM FEW008 OVC036 01/01 A2961 RMK AO1 SLP044
SPECI CYNL 030958Z AUTO 10007KT 9SM FEW008 OVC037 01/01 A2961 RMK AO1 SLP046
METAR CYNL 030900Z AUTO 09007KT 9SM FEW014 SCT042 BKN047 01/01 A2961 RMK AO1 SLP047
SPECI CYNL 030848Z AUTO 11008KT 9SM FEW014 SCT028 01/01 A2962 RMK AO1 SLP051
SPECI CYNL 030840Z AUTO 10005KT 9SM FEW014 BKN027 01/01 A2962 RMK AO1 SLP051
SPECI CYNL 030835Z AUTO 09005KT 6SM VV024 01/01 A2962 RMK AO1 SLP052
SPECI CYNL 030826Z AUTO 10003KT 7SM VV029 01/01 A2963 RMK AO1 SLP054
SPECI CYNL 030819Z AUTO 11003KT 6SM VV030 02/02 A2963 RMK AO1 SLP055
SPECI CYNL 030810Z AUTO 13004KT 4SM VV027 02/ A2963 RMK AO1 SLP055
METAR CYNL 030800Z AUTO 14006KT 9SM FEW031 OVC056 02/ A2963 RMK AO1 SLP054